<?xml version="1.0" encoding="UTF-8" standalone="no" ?><gpx xmlns="http://www.topografix.com/GPX/1/1" xmlns:gpxx="http://www.garmin.com/xmlschemas/GpxExtensions/v3" xmlns:wptx1="http://www.garmin.com/xmlschemas/WaypointExtension/v1" xmlns:gpxtpx="http://www.garmin.com/xmlschemas/TrackPointExtension/v1" creator="Oregon 450" version="1.1" xmlns:xsi="http://www.w3.org/2001/XMLSchema-instance" xsi:schemaLocation="http://www.topografix.com/GPX/1/1 http://www.topografix.com/GPX/1/1/gpx.xsd http://www.garmin.com/xmlschemas/GpxExtensions/v3 http://www8.garmin.com/xmlschemas/GpxExtensionsv3.xsd http://www.garmin.com/xmlschemas/WaypointExtension/v1 http://www8.garmin.com/xmlschemas/WaypointExtensionv1.xsd http://www.garmin.com/xmlschemas/TrackPointExtension/v1 http://www.garmin.com/xmlschemas/TrackPointExtensionv1.xsd"><metadata><link href="http://www.garmin.com"><text>Garmin International</text></link><time>2011-11-13T13:10:25Z</time></metadata><trk><name>13-NOV-11 14:10:24</name><extensions><gpxx:TrackExtension><gpxx:DisplayColor>Black</gpxx:DisplayColor></gpxx:TrackExtension></extensions><trkseg><trkpt lat="46.4761658013" lon="10.3715276811"><ele>1355.60</ele><time>2011-11-13T07:28:09Z</time></trkpt><trkpt lat="46.4761658013" lon="10.3715276811"><ele>1351.75</ele><time>2011-11-13T07:28:17Z</time></trkpt><trkpt lat="46.4761658013" lon="10.3715276811"><ele>1356.08</ele><time>2011-11-13T07:28:18Z</time></trkpt><trkpt lat="46.4761658013" lon="10.3715276811"><ele>1356.08</ele><time>2011-11-13T07:28:19Z</time></trkpt><trkpt lat="46.4761658013" lon="10.3715276811"><ele>1360.40</ele><time>2011-11-13T07:28:23Z</time></trkpt><trkpt lat="46.4761658013" lon="10.3715276811"><ele>1356.08</ele><time>2011-11-13T07:28:24Z</time></trkpt><trkpt lat="46.4761658013" lon="10.3715276811"><ele>1363.77</ele><time>2011-11-13T07:28:27Z</time></trkpt><trkpt lat="46.4761658013" lon="10.3715276811"><ele>1360.88</ele><time>2011-11-13T07:28:28Z</time></trkpt><trkpt lat="46.4761658013" lon="10.3715276811"><ele>1349.83</ele><time>2011-11-13T07:28:29Z</time></trkpt><trkpt lat="46.4761658013" lon="10.3715276811"><ele>1354.15</ele><time>2011-11-13T07:28:30Z</time></trkpt><trkpt lat="46.4761658013" lon="10.3715276811"><ele>1359.44</ele><time>2011-11-13T07:28:31Z</time></trkpt><trkpt lat="46.4761760272" lon="10.3715186287"><ele>1345.50</ele><time>2011-11-13T07:28:32Z</time></trkpt><trkpt lat="46.4761760272" lon="10.3715186287"><ele>1359.44</ele><time>2011-11-13T07:28:33Z</time></trkpt><trkpt lat="46.4761760272" lon="10.3715186287"><ele>1356.08</ele><time>2011-11-13T07:28:34Z</time></trkpt><trkpt lat="46.4761803020" lon="10.3715104144"><ele>1350.79</ele><time>2011-11-13T07:28:38Z</time></trkpt><trkpt lat="46.4761803020" lon="10.3715104144"><ele>1356.08</ele><time>2011-11-13T07:28:39Z</time></trkpt><trkpt lat="46.4761813916" lon="10.3715179581"><ele>1355.60</ele><time>2011-11-13T07:28:58Z</time></trkpt><trkpt lat="46.4761776198" lon="10.3715174552"><ele>1350.79</ele><time>2011-11-13T07:29:12Z</time></trkpt><trkpt lat="46.4761776198" lon="10.3715174552"><ele>1355.12</ele><time>2011-11-13T07:29:13Z</time></trkpt><trkpt lat="46.4761776198" lon="10.3715174552"><ele>1355.60</ele><time>2011-11-13T07:29:15Z</time></trkpt><trkpt lat="46.4761776198" lon="10.3715174552"><ele>1355.12</ele><time>2011-11-13T07:29:17Z</time></trkpt><trkpt lat="46.4763219561" lon="10.3714395035"><ele>1357.04</ele><time>2011-11-13T07:29:31Z</time></trkpt><trkpt lat="46.4763219561" lon="10.3714395035"><ele>1356.08</ele><time>2011-11-13T07:29:59Z</time></trkpt><trkpt lat="46.4763229620" lon="10.3714413475"><ele>1356.56</ele><time>2011-11-13T07:30:28Z</time></trkpt><trkpt lat="46.4763233811" lon="10.3714411799"><ele>1356.08</ele><time>2011-11-13T07:31:06Z</time></trkpt><trkpt lat="46.4763131551" lon="10.3714790661"><ele>1355.60</ele><time>2011-11-13T07:31:32Z</time></trkpt><trkpt lat="46.4763453417" lon="10.3714982606"><ele>1356.08</ele><time>2011-11-13T07:31:51Z</time></trkpt><trkpt lat="46.4763466828" lon="10.3714937344"><ele>1356.08</ele><time>2011-11-13T07:32:09Z</time></trkpt><trkpt lat="46.4763797075" lon="10.3715068102"><ele>1357.52</ele><time>2011-11-13T07:32:23Z</time></trkpt><trkpt lat="46.4764812123" lon="10.3716886975"><ele>1360.88</ele><time>2011-11-13T07:32:38Z</time></trkpt><trkpt lat="46.4765316714" lon="10.3718128335"><ele>1363.29</ele><time>2011-11-13T07:32:54Z</time></trkpt><trkpt lat="46.4765758440" lon="10.3718790505"><ele>1365.69</ele><time>2011-11-13T07:33:10Z</time></trkpt><trkpt lat="46.4766224474" lon="10.3720049467"><ele>1369.05</ele><time>2011-11-13T07:33:26Z</time></trkpt><trkpt lat="46.4766798634" lon="10.3721552342"><ele>1370.02</ele><time>2011-11-13T07:33:40Z</time></trkpt><trkpt lat="46.4767037518" lon="10.3722365387"><ele>1372.90</ele><time>2011-11-13T07:33:49Z</time></trkpt><trkpt lat="46.4767188393" lon="10.3722656239"><ele>1373.38</ele><time>2011-11-13T07:33:52Z</time></trkpt><trkpt lat="46.4767905045" lon="10.3724529594"><ele>1376.75</ele><time>2011-11-13T07:34:07Z</time></trkpt><trkpt lat="46.4767937735" lon="10.3724621795"><ele>1376.75</ele><time>2011-11-13T07:34:08Z</time></trkpt><trkpt lat="46.4768174943" lon="10.3726262134"><ele>1380.11</ele><time>2011-11-13T07:34:24Z</time></trkpt><trkpt lat="46.4768023230" lon="10.3727868944"><ele>1381.55</ele><time>2011-11-13T07:34:39Z</time></trkpt><trkpt lat="46.4767931867" lon="10.3728367668"><ele>1381.55</ele><time>2011-11-13T07:34:44Z</time></trkpt><trkpt lat="46.4767922647" lon="10.3728607390"><ele>1382.99</ele><time>2011-11-13T07:34:46Z</time></trkpt><trkpt lat="46.4767864812" lon="10.3729344998"><ele>1383.96</ele><time>2011-11-13T07:35:00Z</time></trkpt><trkpt lat="46.4767882414" lon="10.3729302250"><ele>1381.55</ele><time>2011-11-13T07:35:14Z</time></trkpt><trkpt lat="46.4768750779" lon="10.3729251958"><ele>1380.59</ele><time>2011-11-13T07:35:24Z</time></trkpt><trkpt lat="46.4768947754" lon="10.3729366791"><ele>1383.47</ele><time>2011-11-13T07:35:39Z</time></trkpt><trkpt lat="46.4769048337" lon="10.3729490843"><ele>1384.44</ele><time>2011-11-13T07:35:52Z</time></trkpt><trkpt lat="46.4769127965" lon="10.3729582205"><ele>1387.32</ele><time>2011-11-13T07:36:07Z</time></trkpt><trkpt lat="46.4768999722" lon="10.3729555383"><ele>1389.24</ele><time>2011-11-13T07:36:23Z</time></trkpt><trkpt lat="46.4769918378" lon="10.3729660157"><ele>1391.17</ele><time>2011-11-13T07:36:37Z</time></trkpt><trkpt lat="46.4770315681" lon="10.3729812708"><ele>1390.68</ele><time>2011-11-13T07:36:39Z</time></trkpt><trkpt lat="46.4773111045" lon="10.3731203265"><ele>1393.09</ele><time>2011-11-13T07:36:55Z</time></trkpt><trkpt lat="46.4773869608" lon="10.3732326441"><ele>1396.45</ele><time>2011-11-13T07:37:11Z</time></trkpt><trkpt lat="46.4774793293" lon="10.3732339852"><ele>1397.89</ele><time>2011-11-13T07:37:26Z</time></trkpt><trkpt lat="46.4775504917" lon="10.3732755594"><ele>1399.34</ele><time>2011-11-13T07:37:40Z</time></trkpt><trkpt lat="46.4775928203" lon="10.3733051475"><ele>1402.22</ele><time>2011-11-13T07:37:53Z</time></trkpt><trkpt lat="46.4776888769" lon="10.3733820096"><ele>1404.14</ele><time>2011-11-13T07:38:08Z</time></trkpt><trkpt lat="46.4777748752" lon="10.3734251764"><ele>1407.51</ele><time>2011-11-13T07:38:24Z</time></trkpt><trkpt lat="46.4778259210" lon="10.3734384198"><ele>1408.47</ele><time>2011-11-13T07:38:33Z</time></trkpt><trkpt lat="46.4778886177" lon="10.3735481389"><ele>1408.47</ele><time>2011-11-13T07:38:40Z</time></trkpt><trkpt lat="46.4779046271" lon="10.3735490609"><ele>1409.91</ele><time>2011-11-13T07:38:47Z</time></trkpt><trkpt lat="46.4780066349" lon="10.3735883720"><ele>1410.87</ele><time>2011-11-13T07:39:04Z</time></trkpt><trkpt lat="46.4780872688" lon="10.3736268450"><ele>1413.76</ele><time>2011-11-13T07:39:15Z</time></trkpt><trkpt lat="46.4781635441" lon="10.3736628871"><ele>1415.68</ele><time>2011-11-13T07:39:30Z</time></trkpt><trkpt lat="46.4782178588" lon="10.3736303654"><ele>1418.08</ele><time>2011-11-13T07:39:46Z</time></trkpt><trkpt lat="46.4782684855" lon="10.3736431058"><ele>1419.52</ele><time>2011-11-13T07:40:02Z</time></trkpt><trkpt lat="46.4784379676" lon="10.3737449460"><ele>1421.93</ele><time>2011-11-13T07:40:20Z</time></trkpt><trkpt lat="46.4784638677" lon="10.3737132624"><ele>1423.37</ele><time>2011-11-13T07:40:31Z</time></trkpt><trkpt lat="46.4784709923" lon="10.3737139329"><ele>1425.77</ele><time>2011-11-13T07:40:42Z</time></trkpt><trkpt lat="46.4785237145" lon="10.3737665713"><ele>1427.21</ele><time>2011-11-13T07:40:54Z</time></trkpt><trkpt lat="46.4785227925" lon="10.3737760428"><ele>1429.62</ele><time>2011-11-13T07:41:01Z</time></trkpt><trkpt lat="46.4784461819" lon="10.3737390786"><ele>1431.54</ele><time>2011-11-13T07:41:14Z</time></trkpt><trkpt lat="46.4784295019" lon="10.3737407550"><ele>1430.58</ele><time>2011-11-13T07:41:15Z</time></trkpt><trkpt lat="46.4784305077" lon="10.3737328760"><ele>1432.02</ele><time>2011-11-13T07:41:28Z</time></trkpt><trkpt lat="46.4784914441" lon="10.3737633862"><ele>1435.39</ele><time>2011-11-13T07:41:38Z</time></trkpt><trkpt lat="46.4785668813" lon="10.3738384880"><ele>1434.91</ele><time>2011-11-13T07:41:49Z</time></trkpt><trkpt lat="46.4786048513" lon="10.3739315271"><ele>1436.35</ele><time>2011-11-13T07:42:02Z</time></trkpt><trkpt lat="46.4786575735" lon="10.3740031924"><ele>1435.87</ele><time>2011-11-13T07:42:18Z</time></trkpt><trkpt lat="46.4786575735" lon="10.3740031924"><ele>1435.87</ele><time>2011-11-13T07:42:43Z</time></trkpt><trkpt lat="46.4786860719" lon="10.3740585968"><ele>1435.87</ele><time>2011-11-13T07:43:00Z</time></trkpt><trkpt lat="46.4786983933" lon="10.3740881849"><ele>1435.39</ele><time>2011-11-13T07:43:19Z</time></trkpt><trkpt lat="46.4786974713" lon="10.3740760311"><ele>1435.87</ele><time>2011-11-13T07:43:50Z</time></trkpt><trkpt lat="46.4786911849" lon="10.3740684874"><ele>1435.39</ele><time>2011-11-13T07:44:07Z</time></trkpt><trkpt lat="46.4786911849" lon="10.3740684874"><ele>1435.39</ele><time>2011-11-13T07:44:10Z</time></trkpt><trkpt lat="46.4786999859" lon="10.3741709143"><ele>1434.91</ele><time>2011-11-13T07:44:14Z</time></trkpt><trkpt lat="46.4786714874" lon="10.3742194455"><ele>1435.39</ele><time>2011-11-13T07:44:20Z</time></trkpt><trkpt lat="46.4785377122" lon="10.3742815554"><ele>1436.83</ele><time>2011-11-13T07:44:37Z</time></trkpt><trkpt lat="46.4784253109" lon="10.3742916975"><ele>1438.27</ele><time>2011-11-13T07:44:55Z</time></trkpt><trkpt lat="46.4783751033" lon="10.3742962237"><ele>1438.27</ele><time>2011-11-13T07:44:59Z</time></trkpt><trkpt lat="46.4781832416" lon="10.3742688149"><ele>1437.31</ele><time>2011-11-13T07:45:16Z</time></trkpt><trkpt lat="46.4780135918" lon="10.3743161727"><ele>1435.87</ele><time>2011-11-13T07:45:33Z</time></trkpt><trkpt lat="46.4779619593" lon="10.3743144963"><ele>1435.87</ele><time>2011-11-13T07:45:36Z</time></trkpt><trkpt lat="46.4777760487" lon="10.3742957208"><ele>1434.42</ele><time>2011-11-13T07:45:53Z</time></trkpt><trkpt lat="46.4776619710" lon="10.3743762709"><ele>1435.39</ele><time>2011-11-13T07:46:09Z</time></trkpt><trkpt lat="46.4776488114" lon="10.3743772767"><ele>1435.39</ele><time>2011-11-13T07:46:10Z</time></trkpt><trkpt lat="46.4774749707" lon="10.3743548132"><ele>1435.39</ele><time>2011-11-13T07:46:28Z</time></trkpt><trkpt lat="46.4772392716" lon="10.3743719123"><ele>1434.91</ele><time>2011-11-13T07:46:44Z</time></trkpt><trkpt lat="46.4770870563" lon="10.3744528815"><ele>1434.42</ele><time>2011-11-13T07:46:58Z</time></trkpt><trkpt lat="46.4769184962" lon="10.3744990658"><ele>1435.87</ele><time>2011-11-13T07:47:13Z</time></trkpt><trkpt lat="46.4768610802" lon="10.3746470902"><ele>1437.79</ele><time>2011-11-13T07:47:30Z</time></trkpt><trkpt lat="46.4768400416" lon="10.3746807855"><ele>1438.27</ele><time>2011-11-13T07:47:34Z</time></trkpt><trkpt lat="46.4768366888" lon="10.3748134710"><ele>1439.71</ele><time>2011-11-13T07:47:46Z</time></trkpt><trkpt lat="46.4768151473" lon="10.3748745751"><ele>1440.67</ele><time>2011-11-13T07:47:51Z</time></trkpt><trkpt lat="46.4768022392" lon="10.3748967033"><ele>1440.67</ele><time>2011-11-13T07:47:53Z</time></trkpt><trkpt lat="46.4767502714" lon="10.3749841265"><ele>1441.63</ele><time>2011-11-13T07:48:00Z</time></trkpt><trkpt lat="46.4767464995" lon="10.3750650957"><ele>1442.11</ele><time>2011-11-13T07:48:05Z</time></trkpt><trkpt lat="46.4767189231" lon="10.3750839550"><ele>1443.56</ele><time>2011-11-13T07:48:09Z</time></trkpt><trkpt lat="46.4766568970" lon="10.3752351645"><ele>1445.96</ele><time>2011-11-13T07:48:24Z</time></trkpt><trkpt lat="46.4765779395" lon="10.3753333166"><ele>1447.88</ele><time>2011-11-13T07:48:39Z</time></trkpt><trkpt lat="46.4765434060" lon="10.3754617274"><ele>1448.84</ele><time>2011-11-13T07:48:54Z</time></trkpt><trkpt lat="46.4765175898" lon="10.3754846100"><ele>1449.32</ele><time>2011-11-13T07:48:56Z</time></trkpt><trkpt lat="46.4763706550" lon="10.3755762242"><ele>1451.25</ele><time>2011-11-13T07:49:11Z</time></trkpt><trkpt lat="46.4762634505" lon="10.3756074049"><ele>1454.13</ele><time>2011-11-13T07:49:27Z</time></trkpt><trkpt lat="46.4761839900" lon="10.3757498972"><ele>1456.05</ele><time>2011-11-13T07:49:41Z</time></trkpt><trkpt lat="46.4761189464" lon="10.3758036252"><ele>1457.50</ele><time>2011-11-13T07:49:56Z</time></trkpt><trkpt lat="46.4760938846" lon="10.3758449480"><ele>1458.94</ele><time>2011-11-13T07:50:01Z</time></trkpt><trkpt lat="46.4760998357" lon="10.3758767992"><ele>1459.90</ele><time>2011-11-13T07:50:18Z</time></trkpt><trkpt lat="46.4760975726" lon="10.3758543357"><ele>1460.86</ele><time>2011-11-13T07:50:40Z</time></trkpt><trkpt lat="46.4761164319" lon="10.3758433554"><ele>1461.82</ele><time>2011-11-13T07:50:54Z</time></trkpt><trkpt lat="46.4761182759" lon="10.3758431040"><ele>1461.82</ele><time>2011-11-13T07:51:16Z</time></trkpt><trkpt lat="46.4761340339" lon="10.3758384101"><ele>1463.74</ele><time>2011-11-13T07:51:39Z</time></trkpt><trkpt lat="46.4761568327" lon="10.3758312855"><ele>1464.71</ele><time>2011-11-13T07:51:45Z</time></trkpt><trkpt lat="46.4762688987" lon="10.3758098278"><ele>1467.11</ele><time>2011-11-13T07:52:04Z</time></trkpt><trkpt lat="46.4763035160" lon="10.3757646494"><ele>1467.59</ele><time>2011-11-13T07:52:09Z</time></trkpt><trkpt lat="46.4763838984" lon="10.3757777251"><ele>1468.07</ele><time>2011-11-13T07:52:25Z</time></trkpt><trkpt lat="46.4764752612" lon="10.3757657390"><ele>1470.47</ele><time>2011-11-13T07:52:39Z</time></trkpt><trkpt lat="46.4764910191" lon="10.3757666610"><ele>1470.47</ele><time>2011-11-13T07:52:57Z</time></trkpt><trkpt lat="46.4765451662" lon="10.3757336363"><ele>1471.92</ele><time>2011-11-13T07:53:16Z</time></trkpt><trkpt lat="46.4766289853" lon="10.3756623901"><ele>1472.88</ele><time>2011-11-13T07:53:33Z</time></trkpt><trkpt lat="46.4767588209" lon="10.3757000249"><ele>1474.80</ele><time>2011-11-13T07:53:49Z</time></trkpt><trkpt lat="46.4767672028" lon="10.3758071456"><ele>1475.28</ele><time>2011-11-13T07:54:08Z</time></trkpt><trkpt lat="46.4767537080" lon="10.3758495580"><ele>1477.20</ele><time>2011-11-13T07:54:15Z</time></trkpt><trkpt lat="46.4767018240" lon="10.3759117518"><ele>1479.13</ele><time>2011-11-13T07:54:30Z</time></trkpt><trkpt lat="46.4766444080" lon="10.3759383224"><ele>1482.49</ele><time>2011-11-13T07:54:44Z</time></trkpt><trkpt lat="46.4766074438" lon="10.3760467004"><ele>1483.93</ele><time>2011-11-13T07:54:58Z</time></trkpt><trkpt lat="46.4765289892" lon="10.3761294298"><ele>1486.34</ele><time>2011-11-13T07:55:13Z</time></trkpt><trkpt lat="46.4765246306" lon="10.3761335369"><ele>1486.34</ele><time>2011-11-13T07:55:14Z</time></trkpt><trkpt lat="46.4765118901" lon="10.3761823196"><ele>1488.26</ele><time>2011-11-13T07:55:27Z</time></trkpt><trkpt lat="46.4764750097" lon="10.3762363829"><ele>1491.62</ele><time>2011-11-13T07:55:44Z</time></trkpt><trkpt lat="46.4764541388" lon="10.3763148375"><ele>1492.10</ele><time>2011-11-13T07:56:05Z</time></trkpt><trkpt lat="46.4764563181" lon="10.3763177712"><ele>1491.62</ele><time>2011-11-13T07:56:39Z</time></trkpt><trkpt lat="46.4763831440" lon="10.3762813937"><ele>1493.55</ele><time>2011-11-13T07:56:56Z</time></trkpt><trkpt lat="46.4764629398" lon="10.3762331139"><ele>1495.47</ele><time>2011-11-13T07:57:12Z</time></trkpt><trkpt lat="46.4765383769" lon="10.3762087226"><ele>1497.87</ele><time>2011-11-13T07:57:28Z</time></trkpt><trkpt lat="46.4766252134" lon="10.3762594331"><ele>1499.79</ele><time>2011-11-13T07:57:44Z</time></trkpt><trkpt lat="46.4766551368" lon="10.3762594331"><ele>1500.76</ele><time>2011-11-13T07:57:48Z</time></trkpt><trkpt lat="46.4767454937" lon="10.3762578405"><ele>1502.68</ele><time>2011-11-13T07:58:02Z</time></trkpt><trkpt lat="46.4768464956" lon="10.3762254864"><ele>1503.64</ele><time>2011-11-13T07:58:18Z</time></trkpt><trkpt lat="46.4769226871" lon="10.3761591855"><ele>1506.52</ele><time>2011-11-13T07:58:35Z</time></trkpt><trkpt lat="46.4770475775" lon="10.3761585988"><ele>1507.48</ele><time>2011-11-13T07:58:50Z</time></trkpt><trkpt lat="46.4771539439" lon="10.3761068825"><ele>1510.37</ele><time>2011-11-13T07:59:06Z</time></trkpt><trkpt lat="46.4772612322" lon="10.3760758694"><ele>1513.73</ele><time>2011-11-13T07:59:23Z</time></trkpt><trkpt lat="46.4773040637" lon="10.3760494664"><ele>1513.73</ele><time>2011-11-13T07:59:42Z</time></trkpt><trkpt lat="46.4774899743" lon="10.3760026116"><ele>1514.21</ele><time>2011-11-13T07:59:59Z</time></trkpt><trkpt lat="46.4775591251" lon="10.3759919666"><ele>1515.66</ele><time>2011-11-13T08:00:13Z</time></trkpt><trkpt lat="46.4776120149" lon="10.3760131728"><ele>1515.66</ele><time>2011-11-13T08:00:37Z</time></trkpt><trkpt lat="46.4776336402" lon="10.3761046194"><ele>1517.58</ele><time>2011-11-13T08:00:50Z</time></trkpt><trkpt lat="46.4776427764" lon="10.3762438428"><ele>1518.54</ele><time>2011-11-13T08:01:05Z</time></trkpt><trkpt lat="46.4776540082" lon="10.3763862513"><ele>1521.90</ele><time>2011-11-13T08:01:20Z</time></trkpt><trkpt lat="46.4775903895" lon="10.3764681425"><ele>1524.31</ele><time>2011-11-13T08:01:37Z</time></trkpt><trkpt lat="46.4775480609" lon="10.3766127303"><ele>1526.23</ele><time>2011-11-13T08:01:53Z</time></trkpt><trkpt lat="46.4775093365" lon="10.3766906820"><ele>1529.59</ele><time>2011-11-13T08:02:08Z</time></trkpt><trkpt lat="46.4774424490" lon="10.3768119682"><ele>1531.52</ele><time>2011-11-13T08:02:27Z</time></trkpt><trkpt lat="46.4772733022" lon="10.3769035824"><ele>1534.88</ele><time>2011-11-13T08:02:43Z</time></trkpt><trkpt lat="46.4770688675" lon="10.3769362718"><ele>1535.84</ele><time>2011-11-13T08:03:00Z</time></trkpt><trkpt lat="46.4770631678" lon="10.3769585676"><ele>1537.29</ele><time>2011-11-13T08:03:13Z</time></trkpt><trkpt lat="46.4771717135" lon="10.3769719787"><ele>1539.69</ele><time>2011-11-13T08:03:29Z</time></trkpt><trkpt lat="46.4772281237" lon="10.3769855574"><ele>1541.13</ele><time>2011-11-13T08:03:38Z</time></trkpt><trkpt lat="46.4773235936" lon="10.3769998904"><ele>1543.53</ele><time>2011-11-13T08:03:54Z</time></trkpt><trkpt lat="46.4774235897" lon="10.3769768402"><ele>1545.94</ele><time>2011-11-13T08:04:09Z</time></trkpt><trkpt lat="46.4774724562" lon="10.3770506848"><ele>1546.90</ele><time>2011-11-13T08:04:27Z</time></trkpt><trkpt lat="46.4774850290" lon="10.3771195840"><ele>1547.86</ele><time>2011-11-13T08:04:41Z</time></trkpt><trkpt lat="46.4774817601" lon="10.3772096056"><ele>1548.82</ele><time>2011-11-13T08:04:58Z</time></trkpt><trkpt lat="46.4773953427" lon="10.3773220070"><ele>1551.71</ele><time>2011-11-13T08:05:14Z</time></trkpt><trkpt lat="46.4773639105" lon="10.3775024693"><ele>1553.63</ele><time>2011-11-13T08:05:30Z</time></trkpt><trkpt lat="46.4772196580" lon="10.3776092548"><ele>1554.59</ele><time>2011-11-13T08:05:47Z</time></trkpt><trkpt lat="46.4772008825" lon="10.3776401840"><ele>1556.03</ele><time>2011-11-13T08:05:50Z</time></trkpt><trkpt lat="46.4771292172" lon="10.3777258471"><ele>1557.47</ele><time>2011-11-13T08:06:04Z</time></trkpt><trkpt lat="46.4770932589" lon="10.3777233325"><ele>1556.51</ele><time>2011-11-13T08:06:21Z</time></trkpt><trkpt lat="46.4770932589" lon="10.3777233325"><ele>1556.51</ele><time>2011-11-13T08:06:49Z</time></trkpt><trkpt lat="46.4770924207" lon="10.3777272720"><ele>1556.51</ele><time>2011-11-13T08:07:19Z</time></trkpt><trkpt lat="46.4770775009" lon="10.3777222428"><ele>1556.03</ele><time>2011-11-13T08:07:46Z</time></trkpt><trkpt lat="46.4770606533" lon="10.3777121007"><ele>1557.47</ele><time>2011-11-13T08:08:04Z</time></trkpt><trkpt lat="46.4770643413" lon="10.3777022939"><ele>1556.99</ele><time>2011-11-13T08:08:17Z</time></trkpt><trkpt lat="46.4770840388" lon="10.3777074069"><ele>1559.40</ele><time>2011-11-13T08:08:36Z</time></trkpt><trkpt lat="46.4771774132" lon="10.3777433652"><ele>1560.84</ele><time>2011-11-13T08:08:50Z</time></trkpt><trkpt lat="46.4772772416" lon="10.3776880447"><ele>1563.72</ele><time>2011-11-13T08:09:09Z</time></trkpt><trkpt lat="46.4773684368" lon="10.3775946703"><ele>1565.64</ele><time>2011-11-13T08:09:24Z</time></trkpt><trkpt lat="46.4775602147" lon="10.3775623161"><ele>1568.05</ele><time>2011-11-13T08:09:41Z</time></trkpt><trkpt lat="46.4776146971" lon="10.3775374219"><ele>1569.01</ele><time>2011-11-13T08:09:58Z</time></trkpt><trkpt lat="46.4776146971" lon="10.3775374219"><ele>1569.01</ele><time>2011-11-13T08:10:27Z</time></trkpt><trkpt lat="46.4776462968" lon="10.3775233403"><ele>1567.57</ele><time>2011-11-13T08:10:45Z</time></trkpt><trkpt lat="46.4777409285" lon="10.3774997871"><ele>1569.49</ele><time>2011-11-13T08:11:00Z</time></trkpt><trkpt lat="46.4777729474" lon="10.3774843644"><ele>1571.41</ele><time>2011-11-13T08:11:08Z</time></trkpt><trkpt lat="46.4778046310" lon="10.3775558621"><ele>1571.41</ele><time>2011-11-13T08:11:27Z</time></trkpt><trkpt lat="46.4777297806" lon="10.3777332231"><ele>1574.30</ele><time>2011-11-13T08:11:44Z</time></trkpt><trkpt lat="46.4777188003" lon="10.3777566925"><ele>1574.30</ele><time>2011-11-13T08:11:46Z</time></trkpt><trkpt lat="46.4776081592" lon="10.3778821696"><ele>1576.22</ele><time>2011-11-13T08:12:06Z</time></trkpt><trkpt lat="46.4775270224" lon="10.3780446108"><ele>1578.62</ele><time>2011-11-13T08:12:23Z</time></trkpt><trkpt lat="46.4775126893" lon="10.3780802339"><ele>1578.62</ele><time>2011-11-13T08:12:27Z</time></trkpt><trkpt lat="46.4775032178" lon="10.3781234846"><ele>1580.54</ele><time>2011-11-13T08:12:30Z</time></trkpt><trkpt lat="46.4774337318" lon="10.3782166075"><ele>1581.03</ele><time>2011-11-13T08:12:41Z</time></trkpt><trkpt lat="46.4773927443" lon="10.3783585969"><ele>1581.99</ele><time>2011-11-13T08:12:54Z</time></trkpt><trkpt lat="46.4773421176" lon="10.3785382211"><ele>1584.39</ele><time>2011-11-13T08:13:10Z</time></trkpt><trkpt lat="46.4773244318" lon="10.3785427473"><ele>1585.35</ele><time>2011-11-13T08:13:27Z</time></trkpt><trkpt lat="46.4772983640" lon="10.3785130754"><ele>1586.79</ele><time>2011-11-13T08:13:30Z</time></trkpt><trkpt lat="46.4773492422" lon="10.3784130793"><ele>1588.72</ele><time>2011-11-13T08:13:46Z</time></trkpt><trkpt lat="46.4774428681" lon="10.3783062100"><ele>1590.64</ele><time>2011-11-13T08:14:00Z</time></trkpt><trkpt lat="46.4775442053" lon="10.3782566730"><ele>1593.52</ele><time>2011-11-13T08:14:16Z</time></trkpt><trkpt lat="46.4776084945" lon="10.3782206308"><ele>1594.48</ele><time>2011-11-13T08:14:28Z</time></trkpt><trkpt lat="46.4776877873" lon="10.3781763744"><ele>1596.41</ele><time>2011-11-13T08:14:42Z</time></trkpt><trkpt lat="46.4777646493" lon="10.3781323694"><ele>1598.33</ele><time>2011-11-13T08:14:55Z</time></trkpt><trkpt lat="46.4778240770" lon="10.3781044576"><ele>1600.25</ele><time>2011-11-13T08:15:08Z</time></trkpt><trkpt lat="46.4778854325" lon="10.3781105764"><ele>1601.69</ele><time>2011-11-13T08:15:30Z</time></trkpt><trkpt lat="46.4778975863" lon="10.3782196250"><ele>1603.62</ele><time>2011-11-13T08:15:42Z</time></trkpt><trkpt lat="46.4778255858" lon="10.3784088045"><ele>1605.54</ele><time>2011-11-13T08:16:00Z</time></trkpt><trkpt lat="46.4777805749" lon="10.3785356227"><ele>1607.46</ele><time>2011-11-13T08:16:14Z</time></trkpt><trkpt lat="46.4777174592" lon="10.3786100540"><ele>1608.42</ele><time>2011-11-13T08:16:29Z</time></trkpt><trkpt lat="46.4776552655" lon="10.3787248861"><ele>1610.35</ele><time>2011-11-13T08:16:44Z</time></trkpt><trkpt lat="46.4775945805" lon="10.3787971381"><ele>1611.31</ele><time>2011-11-13T08:16:52Z</time></trkpt><trkpt lat="46.4775188919" lon="10.3789532091"><ele>1611.31</ele><time>2011-11-13T08:17:07Z</time></trkpt><trkpt lat="46.4775129408" lon="10.3789218608"><ele>1613.23</ele><time>2011-11-13T08:17:23Z</time></trkpt><trkpt lat="46.4775601309" lon="10.3788598347"><ele>1615.15</ele><time>2011-11-13T08:17:39Z</time></trkpt><trkpt lat="46.4776663296" lon="10.3787095472"><ele>1618.52</ele><time>2011-11-13T08:17:54Z</time></trkpt><trkpt lat="46.4776885416" lon="10.3786989022"><ele>1618.04</ele><time>2011-11-13T08:17:56Z</time></trkpt><trkpt lat="46.4777798206" lon="10.3786451742"><ele>1620.44</ele><time>2011-11-13T08:18:10Z</time></trkpt><trkpt lat="46.4778723568" lon="10.3786415700"><ele>1622.36</ele><time>2011-11-13T08:18:25Z</time></trkpt><trkpt lat="46.4779721852" lon="10.3786313441"><ele>1624.28</ele><time>2011-11-13T08:18:39Z</time></trkpt><trkpt lat="46.4780515619" lon="10.3785766102"><ele>1626.21</ele><time>2011-11-13T08:18:53Z</time></trkpt><trkpt lat="46.4781744406" lon="10.3785458487"><ele>1627.17</ele><time>2011-11-13T08:19:07Z</time></trkpt><trkpt lat="46.4782489557" lon="10.3785300069"><ele>1628.61</ele><time>2011-11-13T08:19:21Z</time></trkpt><trkpt lat="46.4782856684" lon="10.3786198609"><ele>1630.53</ele><time>2011-11-13T08:19:41Z</time></trkpt><trkpt lat="46.4782679826" lon="10.3787781950"><ele>1632.46</ele><time>2011-11-13T08:19:55Z</time></trkpt><trkpt lat="46.4782161824" lon="10.3789340146"><ele>1635.34</ele><time>2011-11-13T08:20:11Z</time></trkpt><trkpt lat="46.4781636279" lon="10.3789967950"><ele>1637.74</ele><time>2011-11-13T08:20:26Z</time></trkpt><trkpt lat="46.4780504722" lon="10.3791077714"><ele>1639.67</ele><time>2011-11-13T08:20:42Z</time></trkpt><trkpt lat="46.4780391566" lon="10.3791767545"><ele>1641.11</ele><time>2011-11-13T08:20:55Z</time></trkpt><trkpt lat="46.4780328702" lon="10.3792229388"><ele>1642.55</ele><time>2011-11-13T08:21:07Z</time></trkpt><trkpt lat="46.4780469518" lon="10.3792360146"><ele>1643.51</ele><time>2011-11-13T08:21:26Z</time></trkpt><trkpt lat="46.4780710079" lon="10.3792797681"><ele>1645.91</ele><time>2011-11-13T08:21:41Z</time></trkpt><trkpt lat="46.4781152643" lon="10.3792604897"><ele>1646.40</ele><time>2011-11-13T08:21:55Z</time></trkpt><trkpt lat="46.4781766199" lon="10.3792114556"><ele>1649.28</ele><time>2011-11-13T08:22:05Z</time></trkpt><trkpt lat="46.4782488719" lon="10.3791047540"><ele>1650.72</ele><time>2011-11-13T08:22:16Z</time></trkpt><trkpt lat="46.4782831538" lon="10.3790852241"><ele>1650.72</ele><time>2011-11-13T08:22:33Z</time></trkpt><trkpt lat="46.4782896917" lon="10.3790916782"><ele>1650.24</ele><time>2011-11-13T08:23:01Z</time></trkpt><trkpt lat="46.4782933798" lon="10.3790905047"><ele>1650.24</ele><time>2011-11-13T08:23:30Z</time></trkpt><trkpt lat="46.4784010872" lon="10.3790601622"><ele>1651.20</ele><time>2011-11-13T08:23:46Z</time></trkpt><trkpt lat="46.4784886781" lon="10.3790399618"><ele>1652.64</ele><time>2011-11-13T08:24:01Z</time></trkpt><trkpt lat="46.4785052743" lon="10.3790353518"><ele>1652.64</ele><time>2011-11-13T08:24:03Z</time></trkpt><trkpt lat="46.4786301646" lon="10.3790082783"><ele>1654.09</ele><time>2011-11-13T08:24:17Z</time></trkpt><trkpt lat="46.4787118882" lon="10.3789867368"><ele>1656.01</ele><time>2011-11-13T08:24:31Z</time></trkpt><trkpt lat="46.4787345193" lon="10.3790985513"><ele>1657.45</ele><time>2011-11-13T08:24:48Z</time></trkpt><trkpt lat="46.4786291588" lon="10.3792733978"><ele>1659.37</ele><time>2011-11-13T08:25:06Z</time></trkpt><trkpt lat="46.4785393048" lon="10.3793179896"><ele>1660.81</ele><time>2011-11-13T08:25:23Z</time></trkpt><trkpt lat="46.4784947131" lon="10.3793755732"><ele>1661.78</ele><time>2011-11-13T08:25:37Z</time></trkpt><trkpt lat="46.4784672204" lon="10.3794227634"><ele>1663.70</ele><time>2011-11-13T08:25:56Z</time></trkpt><trkpt lat="46.4785098843" lon="10.3793925047"><ele>1666.10</ele><time>2011-11-13T08:26:06Z</time></trkpt><trkpt lat="46.4785792027" lon="10.3793908283"><ele>1668.02</ele><time>2011-11-13T08:26:20Z</time></trkpt><trkpt lat="46.4786578249" lon="10.3794131242"><ele>1670.43</ele><time>2011-11-13T08:26:33Z</time></trkpt><trkpt lat="46.4787109662" lon="10.3794075921"><ele>1671.39</ele><time>2011-11-13T08:26:41Z</time></trkpt><trkpt lat="46.4787357766" lon="10.3794092685"><ele>1671.87</ele><time>2011-11-13T08:26:43Z</time></trkpt><trkpt lat="46.4788263012" lon="10.3793923371"><ele>1673.79</ele><time>2011-11-13T08:26:57Z</time></trkpt><trkpt lat="46.4788364433" lon="10.3793905769"><ele>1673.79</ele><time>2011-11-13T08:26:58Z</time></trkpt><trkpt lat="46.4789717272" lon="10.3793780878"><ele>1676.68</ele><time>2011-11-13T08:27:12Z</time></trkpt><trkpt lat="46.4789588191" lon="10.3794899024"><ele>1679.08</ele><time>2011-11-13T08:27:30Z</time></trkpt><trkpt lat="46.4789418876" lon="10.3795820195"><ele>1679.56</ele><time>2011-11-13T08:27:46Z</time></trkpt><trkpt lat="46.4789418876" lon="10.3795820195"><ele>1679.56</ele><time>2011-11-13T08:28:15Z</time></trkpt><trkpt lat="46.4789425582" lon="10.3795888927"><ele>1679.56</ele><time>2011-11-13T08:28:46Z</time></trkpt><trkpt lat="46.4788957871" lon="10.3796942532"><ele>1681.00</ele><time>2011-11-13T08:29:00Z</time></trkpt><trkpt lat="46.4788459986" lon="10.3797654156"><ele>1684.37</ele><time>2011-11-13T08:29:13Z</time></trkpt><trkpt lat="46.4787600841" lon="10.3798566945"><ele>1686.77</ele><time>2011-11-13T08:29:31Z</time></trkpt><trkpt lat="46.4787622634" lon="10.3798714466"><ele>1687.25</ele><time>2011-11-13T08:29:50Z</time></trkpt><trkpt lat="46.4787815418" lon="10.3798494861"><ele>1689.65</ele><time>2011-11-13T08:30:10Z</time></trkpt><trkpt lat="46.4788163267" lon="10.3798318002"><ele>1691.58</ele><time>2011-11-13T08:30:18Z</time></trkpt><trkpt lat="46.4789371938" lon="10.3798343986"><ele>1693.02</ele><time>2011-11-13T08:30:33Z</time></trkpt><trkpt lat="46.4790224377" lon="10.3798282798"><ele>1695.42</ele><time>2011-11-13T08:30:48Z</time></trkpt><trkpt lat="46.4791219309" lon="10.3798553534"><ele>1697.83</ele><time>2011-11-13T08:31:01Z</time></trkpt><trkpt lat="46.4792158920" lon="10.3798902221"><ele>1699.75</ele><time>2011-11-13T08:31:14Z</time></trkpt><trkpt lat="46.4792412892" lon="10.3798948321"><ele>1700.23</ele><time>2011-11-13T08:31:32Z</time></trkpt><trkpt lat="46.4793526847" lon="10.3799516615"><ele>1703.59</ele><time>2011-11-13T08:31:48Z</time></trkpt><trkpt lat="46.4794092625" lon="10.3799215704"><ele>1703.11</ele><time>2011-11-13T08:32:05Z</time></trkpt><trkpt lat="46.4794603083" lon="10.3799035493"><ele>1705.04</ele><time>2011-11-13T08:32:16Z</time></trkpt><trkpt lat="46.4794600569" lon="10.3799032141"><ele>1705.04</ele><time>2011-11-13T08:32:49Z</time></trkpt><trkpt lat="46.4794735517" lon="10.3799114283"><ele>1705.04</ele><time>2011-11-13T08:33:21Z</time></trkpt><trkpt lat="46.4794871304" lon="10.3799314611"><ele>1705.04</ele><time>2011-11-13T08:33:40Z</time></trkpt><trkpt lat="46.4794669300" lon="10.3800285235"><ele>1708.40</ele><time>2011-11-13T08:33:51Z</time></trkpt><trkpt lat="46.4793992881" lon="10.3802006040"><ele>1709.36</ele><time>2011-11-13T08:34:06Z</time></trkpt><trkpt lat="46.4793706220" lon="10.3802337963"><ele>1709.84</ele><time>2011-11-13T08:34:11Z</time></trkpt><trkpt lat="46.4792379364" lon="10.3802625462"><ele>1710.80</ele><time>2011-11-13T08:34:24Z</time></trkpt><trkpt lat="46.4791795146" lon="10.3802912962"><ele>1710.80</ele><time>2011-11-13T08:34:31Z</time></trkpt><trkpt lat="46.4790837094" lon="10.3803689126"><ele>1712.25</ele><time>2011-11-13T08:34:47Z</time></trkpt><trkpt lat="46.4790818654" lon="10.3803622071"><ele>1713.21</ele><time>2011-11-13T08:34:55Z</time></trkpt><trkpt lat="46.4790795185" lon="10.3802886140"><ele>1715.13</ele><time>2011-11-13T08:35:09Z</time></trkpt><trkpt lat="46.4792069234" lon="10.3803070541"><ele>1716.57</ele><time>2011-11-13T08:35:23Z</time></trkpt><trkpt lat="46.4792145509" lon="10.3803094849"><ele>1717.53</ele><time>2011-11-13T08:35:24Z</time></trkpt><trkpt lat="46.4792427141" lon="10.3803368937"><ele>1718.01</ele><time>2011-11-13T08:35:27Z</time></trkpt><trkpt lat="46.4793269522" lon="10.3803692479"><ele>1719.46</ele><time>2011-11-13T08:35:41Z</time></trkpt><trkpt lat="46.4793950971" lon="10.3803497180"><ele>1721.86</ele><time>2011-11-13T08:35:54Z</time></trkpt><trkpt lat="46.4794541895" lon="10.3803875204"><ele>1723.30</ele><time>2011-11-13T08:36:01Z</time></trkpt><trkpt lat="46.4795051515" lon="10.3804123309"><ele>1724.74</ele><time>2011-11-13T08:36:18Z</time></trkpt><trkpt lat="46.4795007091" lon="10.3804404940"><ele>1726.67</ele><time>2011-11-13T08:36:40Z</time></trkpt><trkpt lat="46.4794950094" lon="10.3804643825"><ele>1726.67</ele><time>2011-11-13T08:36:41Z</time></trkpt><trkpt lat="46.4794220030" lon="10.3806832340"><ele>1728.59</ele><time>2011-11-13T08:36:57Z</time></trkpt><trkpt lat="46.4793644194" lon="10.3807731718"><ele>1728.59</ele><time>2011-11-13T08:37:06Z</time></trkpt><trkpt lat="46.4791966975" lon="10.3808726650"><ele>1731.47</ele><time>2011-11-13T08:37:21Z</time></trkpt><trkpt lat="46.4791614097" lon="10.3809475154"><ele>1731.95</ele><time>2011-11-13T08:37:27Z</time></trkpt><trkpt lat="46.4790284727" lon="10.3809582442"><ele>1732.43</ele><time>2011-11-13T08:37:38Z</time></trkpt><trkpt lat="46.4789934363" lon="10.3810159117"><ele>1733.39</ele><time>2011-11-13T08:37:43Z</time></trkpt><trkpt lat="46.4788958710" lon="10.3811502736"><ele>1734.84</ele><time>2011-11-13T08:37:57Z</time></trkpt><trkpt lat="46.4788773470" lon="10.3811856452"><ele>1734.84</ele><time>2011-11-13T08:38:04Z</time></trkpt><trkpt lat="46.4788610861" lon="10.3812475875"><ele>1735.32</ele><time>2011-11-13T08:38:18Z</time></trkpt><trkpt lat="46.4788610861" lon="10.3812475875"><ele>1735.80</ele><time>2011-11-13T08:38:41Z</time></trkpt><trkpt lat="46.4788224455" lon="10.3813211806"><ele>1735.80</ele><time>2011-11-13T08:39:01Z</time></trkpt><trkpt lat="46.4788165782" lon="10.3814390302"><ele>1737.24</ele><time>2011-11-13T08:39:14Z</time></trkpt><trkpt lat="46.4787891693" lon="10.3816027287"><ele>1739.64</ele><time>2011-11-13T08:39:27Z</time></trkpt><trkpt lat="46.4787439071" lon="10.3817725461"><ele>1742.05</ele><time>2011-11-13T08:39:40Z</time></trkpt><trkpt lat="46.4787341002" lon="10.3818448819"><ele>1743.01</ele><time>2011-11-13T08:39:47Z</time></trkpt><trkpt lat="46.4787583239" lon="10.3819559421"><ele>1744.93</ele><time>2011-11-13T08:40:02Z</time></trkpt><trkpt lat="46.4786717389" lon="10.3821049724"><ele>1745.41</ele><time>2011-11-13T08:40:14Z</time></trkpt><trkpt lat="46.4786321763" lon="10.3821142763"><ele>1746.85</ele><time>2011-11-13T08:40:17Z</time></trkpt><trkpt lat="46.4785794541" lon="10.3821571916"><ele>1746.85</ele><time>2011-11-13T08:40:22Z</time></trkpt><trkpt lat="46.4784983173" lon="10.3823090717"><ele>1748.29</ele><time>2011-11-13T08:40:36Z</time></trkpt><trkpt lat="46.4785024244" lon="10.3823274281"><ele>1747.81</ele><time>2011-11-13T08:40:37Z</time></trkpt><trkpt lat="46.4784784522" lon="10.3823913820"><ele>1748.29</ele><time>2011-11-13T08:40:43Z</time></trkpt><trkpt lat="46.4784732554" lon="10.3824345488"><ele>1749.74</ele><time>2011-11-13T08:40:58Z</time></trkpt><trkpt lat="46.4784676395" lon="10.3824598622"><ele>1749.74</ele><time>2011-11-13T08:41:20Z</time></trkpt><trkpt lat="46.4784631971" lon="10.3825800586"><ele>1750.22</ele><time>2011-11-13T08:41:33Z</time></trkpt><trkpt lat="46.4784052782" lon="10.3826606926"><ele>1750.22</ele><time>2011-11-13T08:41:52Z</time></trkpt><trkpt lat="46.4783734269" lon="10.3826596029"><ele>1749.74</ele><time>2011-11-13T08:42:00Z</time></trkpt><trkpt lat="46.4783996623" lon="10.3827251494"><ele>1750.70</ele><time>2011-11-13T08:42:11Z</time></trkpt><trkpt lat="46.4784515463" lon="10.3827728424"><ele>1753.58</ele><time>2011-11-13T08:42:22Z</time></trkpt><trkpt lat="46.4785564877" lon="10.3828676417"><ele>1755.99</ele><time>2011-11-13T08:42:37Z</time></trkpt><trkpt lat="46.4785625227" lon="10.3828764427"><ele>1755.50</ele><time>2011-11-13T08:43:00Z</time></trkpt><trkpt lat="46.4786384627" lon="10.3828924522"><ele>1759.35</ele><time>2011-11-13T08:43:12Z</time></trkpt><trkpt lat="46.4786418993" lon="10.3828934580"><ele>1758.39</ele><time>2011-11-13T08:43:13Z</time></trkpt><trkpt lat="46.4786941186" lon="10.3828953858"><ele>1761.27</ele><time>2011-11-13T08:43:22Z</time></trkpt><trkpt lat="46.4787765127" lon="10.3828967270"><ele>1764.16</ele><time>2011-11-13T08:43:37Z</time></trkpt><trkpt lat="46.4788090345" lon="10.3828295879"><ele>1764.64</ele><time>2011-11-13T08:43:42Z</time></trkpt><trkpt lat="46.4789535385" lon="10.3827948030"><ele>1767.04</ele><time>2011-11-13T08:43:58Z</time></trkpt><trkpt lat="46.4789929334" lon="10.3828027658"><ele>1768.00</ele><time>2011-11-13T08:44:04Z</time></trkpt><trkpt lat="46.4790692087" lon="10.3826493770"><ele>1768.96</ele><time>2011-11-13T08:44:20Z</time></trkpt><trkpt lat="46.4791113697" lon="10.3824997600"><ele>1771.37</ele><time>2011-11-13T08:44:34Z</time></trkpt><trkpt lat="46.4792013913" lon="10.3822942358"><ele>1773.29</ele><time>2011-11-13T08:44:49Z</time></trkpt><trkpt lat="46.4793074224" lon="10.3822124284"><ele>1775.69</ele><time>2011-11-13T08:45:06Z</time></trkpt><trkpt lat="46.4793671854" lon="10.3821675852"><ele>1776.65</ele><time>2011-11-13T08:45:13Z</time></trkpt><trkpt lat="46.4795136172" lon="10.3820339777"><ele>1777.61</ele><time>2011-11-13T08:45:29Z</time></trkpt><trkpt lat="46.4795451332" lon="10.3819882125"><ele>1777.13</ele><time>2011-11-13T08:45:34Z</time></trkpt><trkpt lat="46.4795758110" lon="10.3819680121"><ele>1777.13</ele><time>2011-11-13T08:45:37Z</time></trkpt><trkpt lat="46.4796094224" lon="10.3819575347"><ele>1777.13</ele><time>2011-11-13T08:45:40Z</time></trkpt><trkpt lat="46.4797292836" lon="10.3820177168"><ele>1779.54</ele><time>2011-11-13T08:45:58Z</time></trkpt><trkpt lat="46.4797490649" lon="10.3820395935"><ele>1780.98</ele><time>2011-11-13T08:46:22Z</time></trkpt><trkpt lat="46.4797639009" lon="10.3821347281"><ele>1782.42</ele><time>2011-11-13T08:46:30Z</time></trkpt><trkpt lat="46.4797266852" lon="10.3822840098"><ele>1785.31</ele><time>2011-11-13T08:46:46Z</time></trkpt><trkpt lat="46.4796902239" lon="10.3824456967"><ele>1787.71</ele><time>2011-11-13T08:47:02Z</time></trkpt><trkpt lat="46.4795920718" lon="10.3826116584"><ele>1789.63</ele><time>2011-11-13T08:47:18Z</time></trkpt><trkpt lat="46.4795788284" lon="10.3826753609"><ele>1790.11</ele><time>2011-11-13T08:47:23Z</time></trkpt><trkpt lat="46.4795565326" lon="10.3828139137"><ele>1792.03</ele><time>2011-11-13T08:47:38Z</time></trkpt><trkpt lat="46.4795558620" lon="10.3828325216"><ele>1791.55</ele><time>2011-11-13T08:47:40Z</time></trkpt><trkpt lat="46.4795672614" lon="10.3828625288"><ele>1793.00</ele><time>2011-11-13T08:47:42Z</time></trkpt><trkpt lat="46.4795843605" lon="10.3830850683"><ele>1795.88</ele><time>2011-11-13T08:48:02Z</time></trkpt><trkpt lat="46.4795805048" lon="10.3831532970"><ele>1795.88</ele><time>2011-11-13T08:48:22Z</time></trkpt><trkpt lat="46.4796069078" lon="10.3831492737"><ele>1798.28</ele><time>2011-11-13T08:48:37Z</time></trkpt><trkpt lat="46.4796051476" lon="10.3830600902"><ele>1801.65</ele><time>2011-11-13T08:48:53Z</time></trkpt><trkpt lat="46.4796683472" lon="10.3829323500"><ele>1802.61</ele><time>2011-11-13T08:49:08Z</time></trkpt><trkpt lat="46.4797411021" lon="10.3828117345"><ele>1804.53</ele><time>2011-11-13T08:49:22Z</time></trkpt><trkpt lat="46.4797633979" lon="10.3828036040"><ele>1804.53</ele><time>2011-11-13T08:49:42Z</time></trkpt><trkpt lat="46.4797633979" lon="10.3829225432"><ele>1805.97</ele><time>2011-11-13T08:49:56Z</time></trkpt><trkpt lat="46.4797459636" lon="10.3830004111"><ele>1806.94</ele><time>2011-11-13T08:50:14Z</time></trkpt><trkpt lat="46.4797609672" lon="10.3830911871"><ele>1808.38</ele><time>2011-11-13T08:50:27Z</time></trkpt><trkpt lat="46.4797784854" lon="10.3831916861"><ele>1810.30</ele><time>2011-11-13T08:50:38Z</time></trkpt><trkpt lat="46.4797469694" lon="10.3833957016"><ele>1812.22</ele><time>2011-11-13T08:50:54Z</time></trkpt><trkpt lat="46.4797129389" lon="10.3834738210"><ele>1813.18</ele><time>2011-11-13T08:51:09Z</time></trkpt><trkpt lat="46.4797100890" lon="10.3834816162"><ele>1813.66</ele><time>2011-11-13T08:51:11Z</time></trkpt><trkpt lat="46.4796819258" lon="10.3835609090"><ele>1814.63</ele><time>2011-11-13T08:51:23Z</time></trkpt><trkpt lat="46.4796742145" lon="10.3835636750"><ele>1815.11</ele><time>2011-11-13T08:51:40Z</time></trkpt><trkpt lat="46.4796580374" lon="10.3836039919"><ele>1815.59</ele><time>2011-11-13T08:51:55Z</time></trkpt><trkpt lat="46.4796452131" lon="10.3837104421"><ele>1817.99</ele><time>2011-11-13T08:52:13Z</time></trkpt><trkpt lat="46.4796126913" lon="10.3837562911"><ele>1820.87</ele><time>2011-11-13T08:52:29Z</time></trkpt><trkpt lat="46.4795494918" lon="10.3839683533"><ele>1823.28</ele><time>2011-11-13T08:52:48Z</time></trkpt><trkpt lat="46.4795494918" lon="10.3839683533"><ele>1824.72</ele><time>2011-11-13T08:53:08Z</time></trkpt><trkpt lat="46.4795486536" lon="10.3839732148"><ele>1824.72</ele><time>2011-11-13T08:53:30Z</time></trkpt><trkpt lat="46.4795095939" lon="10.3841281123"><ele>1826.16</ele><time>2011-11-13T08:53:44Z</time></trkpt><trkpt lat="46.4795491565" lon="10.3842506558"><ele>1827.60</ele><time>2011-11-13T08:54:04Z</time></trkpt><trkpt lat="46.4795522578" lon="10.3842444532"><ele>1828.08</ele><time>2011-11-13T08:54:30Z</time></trkpt><trkpt lat="46.4795348234" lon="10.3842160385"><ele>1829.53</ele><time>2011-11-13T08:54:45Z</time></trkpt><trkpt lat="46.4795990288" lon="10.3841149528"><ele>1831.45</ele><time>2011-11-13T08:55:01Z</time></trkpt><trkpt lat="46.4797053114" lon="10.3839897271"><ele>1832.89</ele><time>2011-11-13T08:55:18Z</time></trkpt><trkpt lat="46.4797629789" lon="10.3839694429"><ele>1836.26</ele><time>2011-11-13T08:55:31Z</time></trkpt><trkpt lat="46.4798384160" lon="10.3839749750"><ele>1838.18</ele><time>2011-11-13T08:55:46Z</time></trkpt><trkpt lat="46.4797743782" lon="10.3841521684"><ele>1838.18</ele><time>2011-11-13T08:56:01Z</time></trkpt><trkpt lat="46.4797670022" lon="10.3843040485"><ele>1839.14</ele><time>2011-11-13T08:56:15Z</time></trkpt><trkpt lat="46.4797208179" lon="10.3844232392"><ele>1841.54</ele><time>2011-11-13T08:56:27Z</time></trkpt><trkpt lat="46.4797487296" lon="10.3843689244"><ele>1842.02</ele><time>2011-11-13T08:56:41Z</time></trkpt><trkpt lat="46.4797839336" lon="10.3842470516"><ele>1842.98</ele><time>2011-11-13T08:56:56Z</time></trkpt><trkpt lat="46.4798390027" lon="10.3841110971"><ele>1844.91</ele><time>2011-11-13T08:57:12Z</time></trkpt><trkpt lat="46.4798706863" lon="10.3840902261"><ele>1847.31</ele><time>2011-11-13T08:57:27Z</time></trkpt><trkpt lat="46.4800443593" lon="10.3840200696"><ele>1849.23</ele><time>2011-11-13T08:57:42Z</time></trkpt><trkpt lat="46.4801589400" lon="10.3840889689"><ele>1850.68</ele><time>2011-11-13T08:57:56Z</time></trkpt><trkpt lat="46.4802666474" lon="10.3841245081"><ele>1853.08</ele><time>2011-11-13T08:58:10Z</time></trkpt><trkpt lat="46.4803455211" lon="10.3841312137"><ele>1855.48</ele><time>2011-11-13T08:58:23Z</time></trkpt><trkpt lat="46.4804577548" lon="10.3841660824"><ele>1857.89</ele><time>2011-11-13T08:58:39Z</time></trkpt><trkpt lat="46.4805620257" lon="10.3842045553"><ele>1860.29</ele><time>2011-11-13T08:58:56Z</time></trkpt><trkpt lat="46.4807014167" lon="10.3842416871"><ele>1863.17</ele><time>2011-11-13T08:59:10Z</time></trkpt><trkpt lat="46.4807169233" lon="10.3843369894"><ele>1864.13</ele><time>2011-11-13T08:59:26Z</time></trkpt><trkpt lat="46.4805796277" lon="10.3844648134"><ele>1865.58</ele><time>2011-11-13T08:59:44Z</time></trkpt><trkpt lat="46.4805317670" lon="10.3844753746"><ele>1867.02</ele><time>2011-11-13T08:59:48Z</time></trkpt><trkpt lat="46.4804277476" lon="10.3844733629"><ele>1868.94</ele><time>2011-11-13T09:00:02Z</time></trkpt><trkpt lat="46.4803228900" lon="10.3845803998"><ele>1870.86</ele><time>2011-11-13T09:00:19Z</time></trkpt><trkpt lat="46.4802534878" lon="10.3846031986"><ele>1871.82</ele><time>2011-11-13T09:00:35Z</time></trkpt><trkpt lat="46.4802160207" lon="10.3846126702"><ele>1873.75</ele><time>2011-11-13T09:00:47Z</time></trkpt><trkpt lat="46.4802332036" lon="10.3845947329"><ele>1873.75</ele><time>2011-11-13T09:00:59Z</time></trkpt><trkpt lat="46.4802534878" lon="10.3846038692"><ele>1874.71</ele><time>2011-11-13T09:01:02Z</time></trkpt><trkpt lat="46.4803714212" lon="10.3846166097"><ele>1876.15</ele><time>2011-11-13T09:01:18Z</time></trkpt><trkpt lat="46.4804791287" lon="10.3847122472"><ele>1878.07</ele><time>2011-11-13T09:01:33Z</time></trkpt><trkpt lat="46.4805652946" lon="10.3847618680"><ele>1879.51</ele><time>2011-11-13T09:01:46Z</time></trkpt><trkpt lat="46.4806867484" lon="10.3848332819"><ele>1880.96</ele><time>2011-11-13T09:02:00Z</time></trkpt><trkpt lat="46.4807816315" lon="10.3848701622"><ele>1882.88</ele><time>2011-11-13T09:02:12Z</time></trkpt><trkpt lat="46.4808109682" lon="10.3848875966"><ele>1883.84</ele><time>2011-11-13T09:02:16Z</time></trkpt><trkpt lat="46.4809716493" lon="10.3848840762"><ele>1885.28</ele><time>2011-11-13T09:02:34Z</time></trkpt><trkpt lat="46.4810255449" lon="10.3848921228"><ele>1887.21</ele><time>2011-11-13T09:02:41Z</time></trkpt><trkpt lat="46.4810806978" lon="10.3849404864"><ele>1887.21</ele><time>2011-11-13T09:02:57Z</time></trkpt><trkpt lat="46.4810807817" lon="10.3849406540"><ele>1887.69</ele><time>2011-11-13T09:03:33Z</time></trkpt><trkpt lat="46.4810807817" lon="10.3849406540"><ele>1888.65</ele><time>2011-11-13T09:03:55Z</time></trkpt><trkpt lat="46.4810721483" lon="10.3850253951"><ele>1889.61</ele><time>2011-11-13T09:04:12Z</time></trkpt><trkpt lat="46.4809936099" lon="10.3851438314"><ele>1891.53</ele><time>2011-11-13T09:04:29Z</time></trkpt><trkpt lat="46.4808390476" lon="10.3852119762"><ele>1894.42</ele><time>2011-11-13T09:04:49Z</time></trkpt><trkpt lat="46.4807094634" lon="10.3852966335"><ele>1896.82</ele><time>2011-11-13T09:05:08Z</time></trkpt><trkpt lat="46.4805911109" lon="10.3854035866"><ele>1899.70</ele><time>2011-11-13T09:05:24Z</time></trkpt><trkpt lat="46.4804951381" lon="10.3855279740"><ele>1901.63</ele><time>2011-11-13T09:05:41Z</time></trkpt><trkpt lat="46.4804238081" lon="10.3856003098"><ele>1903.55</ele><time>2011-11-13T09:05:53Z</time></trkpt><trkpt lat="46.4803594351" lon="10.3857044131"><ele>1904.03</ele><time>2011-11-13T09:06:08Z</time></trkpt><trkpt lat="46.4803450182" lon="10.3856590670"><ele>1905.47</ele><time>2011-11-13T09:06:26Z</time></trkpt><trkpt lat="46.4804487024" lon="10.3856126312"><ele>1907.39</ele><time>2011-11-13T09:06:42Z</time></trkpt><trkpt lat="46.4804894384" lon="10.3856055904"><ele>1907.87</ele><time>2011-11-13T09:07:01Z</time></trkpt><trkpt lat="46.4804955572" lon="10.3856653534"><ele>1907.39</ele><time>2011-11-13T09:07:15Z</time></trkpt><trkpt lat="46.4804955572" lon="10.3856653534"><ele>1907.87</ele><time>2011-11-13T09:07:46Z</time></trkpt><trkpt lat="46.4804909471" lon="10.3856679518"><ele>1907.87</ele><time>2011-11-13T09:08:24Z</time></trkpt><trkpt lat="46.4804930426" lon="10.3856661916"><ele>1907.39</ele><time>2011-11-13T09:08:59Z</time></trkpt><trkpt lat="46.4804929588" lon="10.3856644314"><ele>1907.39</ele><time>2011-11-13T09:09:28Z</time></trkpt><trkpt lat="46.4804979879" lon="10.3856654372"><ele>1907.39</ele><time>2011-11-13T09:09:55Z</time></trkpt><trkpt lat="46.4804979879" lon="10.3856654372"><ele>1907.39</ele><time>2011-11-13T09:10:18Z</time></trkpt><trkpt lat="46.4804959763" lon="10.3856646828"><ele>1907.39</ele><time>2011-11-13T09:10:53Z</time></trkpt><trkpt lat="46.4804959763" lon="10.3856644314"><ele>1907.39</ele><time>2011-11-13T09:11:19Z</time></trkpt><trkpt lat="46.4805001672" lon="10.3856650181"><ele>1906.91</ele><time>2011-11-13T09:11:52Z</time></trkpt><trkpt lat="46.4805001672" lon="10.3856650181"><ele>1906.91</ele><time>2011-11-13T09:12:27Z</time></trkpt><trkpt lat="46.4805024303" lon="10.3856635094"><ele>1906.91</ele><time>2011-11-13T09:12:57Z</time></trkpt><trkpt lat="46.4805072080" lon="10.3856629226"><ele>1906.91</ele><time>2011-11-13T09:13:27Z</time></trkpt><trkpt lat="46.4805127401" lon="10.3856664430"><ele>1907.87</ele><time>2011-11-13T09:14:00Z</time></trkpt><trkpt lat="46.4805377182" lon="10.3856421355"><ele>1907.87</ele><time>2011-11-13T09:14:22Z</time></trkpt><trkpt lat="46.4806315955" lon="10.3855938558"><ele>1909.80</ele><time>2011-11-13T09:14:36Z</time></trkpt><trkpt lat="46.4807501994" lon="10.3856534511"><ele>1911.24</ele><time>2011-11-13T09:14:53Z</time></trkpt><trkpt lat="46.4807426557" lon="10.3857248649"><ele>1913.64</ele><time>2011-11-13T09:15:10Z</time></trkpt><trkpt lat="46.4807195216" lon="10.3858072590"><ele>1914.12</ele><time>2011-11-13T09:15:26Z</time></trkpt><trkpt lat="46.4807157498" lon="10.3858580533"><ele>1915.56</ele><time>2011-11-13T09:15:38Z</time></trkpt><trkpt lat="46.4808013290" lon="10.3858068399"><ele>1916.53</ele><time>2011-11-13T09:15:51Z</time></trkpt><trkpt lat="46.4808422327" lon="10.3858160600"><ele>1918.45</ele><time>2011-11-13T09:15:57Z</time></trkpt><trkpt lat="46.4809040911" lon="10.3858308960"><ele>1919.41</ele><time>2011-11-13T09:16:11Z</time></trkpt><trkpt lat="46.4809274767" lon="10.3858894017"><ele>1920.85</ele><time>2011-11-13T09:16:26Z</time></trkpt><trkpt lat="46.4808791969" lon="10.3860686067"><ele>1922.29</ele><time>2011-11-13T09:16:39Z</time></trkpt><trkpt lat="46.4808461722" lon="10.3861225024"><ele>1922.29</ele><time>2011-11-13T09:16:44Z</time></trkpt><trkpt lat="46.4808119740" lon="10.3861779906"><ele>1922.77</ele><time>2011-11-13T09:16:59Z</time></trkpt><trkpt lat="46.4807962161" lon="10.3861996159"><ele>1924.70</ele><time>2011-11-13T09:17:09Z</time></trkpt><trkpt lat="46.4808681328" lon="10.3861834388"><ele>1927.10</ele><time>2011-11-13T09:17:23Z</time></trkpt><trkpt lat="46.4809693024" lon="10.3861774877"><ele>1930.46</ele><time>2011-11-13T09:17:38Z</time></trkpt><trkpt lat="46.4810854755" lon="10.3861442953"><ele>1931.91</ele><time>2011-11-13T09:17:53Z</time></trkpt><trkpt lat="46.4811824542" lon="10.3861242626"><ele>1933.35</ele><time>2011-11-13T09:18:08Z</time></trkpt><trkpt lat="46.4811971225" lon="10.3862292040"><ele>1935.75</ele><time>2011-11-13T09:18:26Z</time></trkpt><trkpt lat="46.4811689593" lon="10.3863518313"><ele>1937.67</ele><time>2011-11-13T09:18:36Z</time></trkpt><trkpt lat="46.4811583981" lon="10.3863904718"><ele>1937.19</ele><time>2011-11-13T09:18:39Z</time></trkpt><trkpt lat="46.4810972102" lon="10.3866412584"><ele>1939.12</ele><time>2011-11-13T09:18:56Z</time></trkpt><trkpt lat="46.4810734056" lon="10.3866663203"><ele>1939.12</ele><time>2011-11-13T09:19:17Z</time></trkpt><trkpt lat="46.4810713101" lon="10.3866089880"><ele>1940.56</ele><time>2011-11-13T09:19:32Z</time></trkpt><trkpt lat="46.4811103698" lon="10.3865932301"><ele>1943.44</ele><time>2011-11-13T09:19:43Z</time></trkpt><trkpt lat="46.4811725635" lon="10.3865497280"><ele>1944.88</ele><time>2011-11-13T09:19:56Z</time></trkpt><trkpt lat="46.4812066779" lon="10.3865614627"><ele>1945.85</ele><time>2011-11-13T09:20:13Z</time></trkpt><trkpt lat="46.4812310692" lon="10.3866788093"><ele>1947.29</ele><time>2011-11-13T09:20:35Z</time></trkpt><trkpt lat="46.4812074322" lon="10.3869296797"><ele>1949.21</ele><time>2011-11-13T09:20:50Z</time></trkpt><trkpt lat="46.4811926801" lon="10.3869775403"><ele>1949.69</ele><time>2011-11-13T09:21:08Z</time></trkpt><trkpt lat="46.4812107850" lon="10.3869492095"><ele>1951.13</ele><time>2011-11-13T09:21:22Z</time></trkpt><trkpt lat="46.4812841266" lon="10.3868831601"><ele>1953.06</ele><time>2011-11-13T09:21:36Z</time></trkpt><trkpt lat="46.4813004714" lon="10.3868782148"><ele>1955.46</ele><time>2011-11-13T09:21:45Z</time></trkpt><trkpt lat="46.4813525230" lon="10.3868679050"><ele>1957.38</ele><time>2011-11-13T09:21:59Z</time></trkpt><trkpt lat="46.4814034011" lon="10.3869611956"><ele>1959.30</ele><time>2011-11-13T09:22:16Z</time></trkpt><trkpt lat="46.4813946839" lon="10.3871069569"><ele>1959.30</ele><time>2011-11-13T09:22:32Z</time></trkpt><trkpt lat="46.4813780878" lon="10.3872035164"><ele>1960.27</ele><time>2011-11-13T09:22:48Z</time></trkpt><trkpt lat="46.4813472424" lon="10.3873195220"><ele>1961.71</ele><time>2011-11-13T09:23:04Z</time></trkpt><trkpt lat="46.4813477453" lon="10.3872774448"><ele>1963.15</ele><time>2011-11-13T09:23:13Z</time></trkpt><trkpt lat="46.4814065024" lon="10.3871983197"><ele>1964.59</ele><time>2011-11-13T09:23:27Z</time></trkpt><trkpt lat="46.4814596437" lon="10.3871555720"><ele>1965.07</ele><time>2011-11-13T09:23:46Z</time></trkpt><trkpt lat="46.4815107733" lon="10.3872853238"><ele>1967.48</ele><time>2011-11-13T09:24:02Z</time></trkpt><trkpt lat="46.4814481605" lon="10.3874925245"><ele>1969.40</ele><time>2011-11-13T09:24:18Z</time></trkpt><trkpt lat="46.4814181533" lon="10.3876083624"><ele>1972.28</ele><time>2011-11-13T09:24:31Z</time></trkpt><trkpt lat="46.4812916704" lon="10.3876952827"><ele>1975.65</ele><time>2011-11-13T09:24:49Z</time></trkpt><trkpt lat="46.4812898263" lon="10.3877060954"><ele>1976.61</ele><time>2011-11-13T09:25:07Z</time></trkpt><trkpt lat="46.4812898263" lon="10.3877060954"><ele>1975.17</ele><time>2011-11-13T09:25:28Z</time></trkpt><trkpt lat="46.4812868088" lon="10.3877033293"><ele>1975.17</ele><time>2011-11-13T09:25:43Z</time></trkpt><trkpt lat="46.4812908322" lon="10.3877079394"><ele>1977.09</ele><time>2011-11-13T09:26:04Z</time></trkpt><trkpt lat="46.4813662693" lon="10.3877305705"><ele>1978.53</ele><time>2011-11-13T09:26:20Z</time></trkpt><trkpt lat="46.4814349171" lon="10.3877496812"><ele>1980.45</ele><time>2011-11-13T09:26:39Z</time></trkpt><trkpt lat="46.4814251941" lon="10.3878392838"><ele>1981.41</ele><time>2011-11-13T09:26:55Z</time></trkpt><trkpt lat="46.4813963603" lon="10.3879474942"><ele>1983.34</ele><time>2011-11-13T09:27:14Z</time></trkpt><trkpt lat="46.4814521000" lon="10.3879156429"><ele>1986.22</ele><time>2011-11-13T09:27:29Z</time></trkpt><trkpt lat="46.4814521000" lon="10.3879156429"><ele>1986.70</ele><time>2011-11-13T09:27:42Z</time></trkpt><trkpt lat="46.4815357514" lon="10.3878904134"><ele>1988.14</ele><time>2011-11-13T09:27:46Z</time></trkpt><trkpt lat="46.4815971907" lon="10.3878827859"><ele>1989.10</ele><time>2011-11-13T09:28:00Z</time></trkpt><trkpt lat="46.4816883020" lon="10.3878221847"><ele>1991.51</ele><time>2011-11-13T09:28:14Z</time></trkpt><trkpt lat="46.4817694388" lon="10.3877759166"><ele>1992.95</ele><time>2011-11-13T09:28:31Z</time></trkpt><trkpt lat="46.4817694388" lon="10.3877759166"><ele>1991.99</ele><time>2011-11-13T09:28:47Z</time></trkpt><trkpt lat="46.4817694388" lon="10.3877759166"><ele>1990.55</ele><time>2011-11-13T09:28:50Z</time></trkpt><trkpt lat="46.4817701932" lon="10.3877811134"><ele>1991.03</ele><time>2011-11-13T09:29:18Z</time></trkpt><trkpt lat="46.4817780722" lon="10.3877833765"><ele>1991.51</ele><time>2011-11-13T09:29:50Z</time></trkpt><trkpt lat="46.4817853644" lon="10.3877929319"><ele>1991.51</ele><time>2011-11-13T09:30:27Z</time></trkpt><trkpt lat="46.4817853644" lon="10.3877929319"><ele>1991.51</ele><time>2011-11-13T09:31:02Z</time></trkpt><trkpt lat="46.4817861188" lon="10.3877951950"><ele>1991.51</ele><time>2011-11-13T09:31:34Z</time></trkpt><trkpt lat="46.4817945845" lon="10.3877972066"><ele>1991.51</ele><time>2011-11-13T09:32:12Z</time></trkpt><trkpt lat="46.4817932434" lon="10.3878032416"><ele>1991.99</ele><time>2011-11-13T09:32:44Z</time></trkpt><trkpt lat="46.4817934111" lon="10.3878049180"><ele>1991.51</ele><time>2011-11-13T09:33:17Z</time></trkpt><trkpt lat="46.4817989431" lon="10.3878078517"><ele>1991.99</ele><time>2011-11-13T09:33:49Z</time></trkpt><trkpt lat="46.4817986079" lon="10.3877998888"><ele>1992.47</ele><time>2011-11-13T09:34:12Z</time></trkpt><trkpt lat="46.4817982726" lon="10.3877930995"><ele>1991.51</ele><time>2011-11-13T09:34:33Z</time></trkpt><trkpt lat="46.4817982726" lon="10.3877930995"><ele>1992.47</ele><time>2011-11-13T09:34:34Z</time></trkpt><trkpt lat="46.4818381704" lon="10.3877873998"><ele>1992.95</ele><time>2011-11-13T09:34:53Z</time></trkpt><trkpt lat="46.4818571974" lon="10.3878046665"><ele>1993.91</ele><time>2011-11-13T09:35:16Z</time></trkpt><trkpt lat="46.4818708599" lon="10.3879224323"><ele>1996.32</ele><time>2011-11-13T09:35:34Z</time></trkpt><trkpt lat="46.4818566944" lon="10.3879604861"><ele>1997.76</ele><time>2011-11-13T09:35:53Z</time></trkpt><trkpt lat="46.4818161260" lon="10.3881282918"><ele>2000.16</ele><time>2011-11-13T09:36:10Z</time></trkpt><trkpt lat="46.4817984402" lon="10.3881405294"><ele>1999.20</ele><time>2011-11-13T09:36:31Z</time></trkpt><trkpt lat="46.4817984402" lon="10.3881405294"><ele>2000.64</ele><time>2011-11-13T09:36:34Z</time></trkpt><trkpt lat="46.4817629009" lon="10.3881572932"><ele>2001.60</ele><time>2011-11-13T09:36:49Z</time></trkpt><trkpt lat="46.4818115160" lon="10.3881779965"><ele>2002.56</ele><time>2011-11-13T09:37:02Z</time></trkpt><trkpt lat="46.4818862826" lon="10.3881584667"><ele>2004.97</ele><time>2011-11-13T09:37:21Z</time></trkpt><trkpt lat="46.4819445368" lon="10.3882147931"><ele>2007.85</ele><time>2011-11-13T09:37:36Z</time></trkpt><trkpt lat="46.4819455426" lon="10.3882289585"><ele>2008.81</ele><time>2011-11-13T09:37:38Z</time></trkpt><trkpt lat="46.4819221571" lon="10.3883503284"><ele>2010.25</ele><time>2011-11-13T09:37:54Z</time></trkpt><trkpt lat="46.4818501566" lon="10.3884857800"><ele>2013.62</ele><time>2011-11-13T09:38:10Z</time></trkpt><trkpt lat="46.4817659184" lon="10.3885880392"><ele>2015.06</ele><time>2011-11-13T09:38:26Z</time></trkpt><trkpt lat="46.4817232545" lon="10.3886690084"><ele>2017.46</ele><time>2011-11-13T09:38:41Z</time></trkpt><trkpt lat="46.4816325624" lon="10.3888607025"><ele>2019.87</ele><time>2011-11-13T09:39:00Z</time></trkpt><trkpt lat="46.4816283714" lon="10.3888798133"><ele>2019.87</ele><time>2011-11-13T09:39:01Z</time></trkpt><trkpt lat="46.4815508388" lon="10.3889845032"><ele>2022.27</ele><time>2011-11-13T09:39:17Z</time></trkpt><trkpt lat="46.4815463126" lon="10.3889992554"><ele>2021.79</ele><time>2011-11-13T09:39:18Z</time></trkpt><trkpt lat="46.4815462288" lon="10.3890153486"><ele>2022.75</ele><time>2011-11-13T09:39:30Z</time></trkpt><trkpt lat="46.4815232623" lon="10.3888956551"><ele>2023.71</ele><time>2011-11-13T09:39:47Z</time></trkpt><trkpt lat="46.4816335682" lon="10.3888263367"><ele>2025.64</ele><time>2011-11-13T09:40:04Z</time></trkpt><trkpt lat="46.4816401061" lon="10.3888275940"><ele>2027.08</ele><time>2011-11-13T09:40:15Z</time></trkpt><trkpt lat="46.4816401061" lon="10.3888275940"><ele>2027.56</ele><time>2011-11-13T09:40:37Z</time></trkpt><trkpt lat="46.4818276092" lon="10.3887996823"><ele>2028.04</ele><time>2011-11-13T09:40:53Z</time></trkpt><trkpt lat="46.4818682615" lon="10.3888025321"><ele>2028.52</ele><time>2011-11-13T09:41:13Z</time></trkpt><trkpt lat="46.4818734583" lon="10.3888532426"><ele>2029.96</ele><time>2011-11-13T09:41:19Z</time></trkpt><trkpt lat="46.4818800800" lon="10.3888669051"><ele>2029.96</ele><time>2011-11-13T09:41:43Z</time></trkpt><trkpt lat="46.4818819240" lon="10.3888867702"><ele>2029.00</ele><time>2011-11-13T09:42:19Z</time></trkpt><trkpt lat="46.4818913117" lon="10.3889865149"><ele>2030.92</ele><time>2011-11-13T09:42:27Z</time></trkpt><trkpt lat="46.4818238374" lon="10.3890665621"><ele>2030.44</ele><time>2011-11-13T09:42:41Z</time></trkpt><trkpt lat="46.4818121027" lon="10.3891551588"><ele>2034.29</ele><time>2011-11-13T09:42:55Z</time></trkpt><trkpt lat="46.4817356598" lon="10.3892758582"><ele>2036.21</ele><time>2011-11-13T09:43:09Z</time></trkpt><trkpt lat="46.4816554449" lon="10.3893903550"><ele>2039.09</ele><time>2011-11-13T09:43:25Z</time></trkpt><trkpt lat="46.4814981166" lon="10.3895400558"><ele>2040.05</ele><time>2011-11-13T09:43:43Z</time></trkpt><trkpt lat="46.4813360106" lon="10.3896835539"><ele>2041.50</ele><time>2011-11-13T09:44:00Z</time></trkpt><trkpt lat="46.4812024869" lon="10.3897840530"><ele>2042.46</ele><time>2011-11-13T09:44:15Z</time></trkpt><trkpt lat="46.4809437376" lon="10.3897951171"><ele>2041.50</ele><time>2011-11-13T09:44:35Z</time></trkpt><trkpt lat="46.4809419774" lon="10.3897854779"><ele>2042.94</ele><time>2011-11-13T09:44:52Z</time></trkpt><trkpt lat="46.4808855671" lon="10.3898967057"><ele>2043.90</ele><time>2011-11-13T09:45:07Z</time></trkpt><trkpt lat="46.4808614273" lon="10.3898855578"><ele>2046.78</ele><time>2011-11-13T09:45:26Z</time></trkpt><trkpt lat="46.4809287339" lon="10.3898702189"><ele>2048.23</ele><time>2011-11-13T09:45:36Z</time></trkpt><trkpt lat="46.4809866529" lon="10.3898743261"><ele>2048.23</ele><time>2011-11-13T09:45:49Z</time></trkpt><trkpt lat="46.4809866529" lon="10.3898743261"><ele>2047.75</ele><time>2011-11-13T09:45:51Z</time></trkpt><trkpt lat="46.4810123015" lon="10.3898855578"><ele>2047.75</ele><time>2011-11-13T09:46:09Z</time></trkpt><trkpt lat="46.4809790254" lon="10.3900231887"><ele>2050.63</ele><time>2011-11-13T09:46:23Z</time></trkpt><trkpt lat="46.4809324220" lon="10.3901877254"><ele>2051.59</ele><time>2011-11-13T09:46:32Z</time></trkpt><trkpt lat="46.4809164125" lon="10.3902077582"><ele>2052.55</ele><time>2011-11-13T09:46:34Z</time></trkpt><trkpt lat="46.4808102138" lon="10.3904448822"><ele>2053.99</ele><time>2011-11-13T09:46:53Z</time></trkpt><trkpt lat="46.4808104653" lon="10.3905889671"><ele>2055.92</ele><time>2011-11-13T09:47:08Z</time></trkpt><trkpt lat="46.4807951264" lon="10.3906177171"><ele>2056.40</ele><time>2011-11-13T09:47:11Z</time></trkpt><trkpt lat="46.4807253890" lon="10.3908538353"><ele>2059.28</ele><time>2011-11-13T09:47:30Z</time></trkpt><trkpt lat="46.4807328489" lon="10.3908483032"><ele>2060.24</ele><time>2011-11-13T09:47:44Z</time></trkpt><trkpt lat="46.4807726629" lon="10.3907964192"><ele>2062.17</ele><time>2011-11-13T09:47:59Z</time></trkpt><trkpt lat="46.4807745907" lon="10.3907864448"><ele>2061.68</ele><time>2011-11-13T09:48:00Z</time></trkpt><trkpt lat="46.4808651153" lon="10.3906597104"><ele>2064.57</ele><time>2011-11-13T09:48:18Z</time></trkpt><trkpt lat="46.4808973018" lon="10.3906260990"><ele>2066.49</ele><time>2011-11-13T09:48:34Z</time></trkpt><trkpt lat="46.4809081983" lon="10.3907467145"><ele>2068.89</ele><time>2011-11-13T09:48:50Z</time></trkpt><trkpt lat="46.4809292369" lon="10.3908681683"><ele>2070.82</ele><time>2011-11-13T09:49:07Z</time></trkpt><trkpt lat="46.4809298236" lon="10.3909420129"><ele>2071.78</ele><time>2011-11-13T09:49:22Z</time></trkpt><trkpt lat="46.4809219446" lon="10.3911684919"><ele>2073.70</ele><time>2011-11-13T09:49:38Z</time></trkpt><trkpt lat="46.4808968827" lon="10.3913230542"><ele>2077.07</ele><time>2011-11-13T09:49:53Z</time></trkpt><trkpt lat="46.4808683842" lon="10.3915139101"><ele>2078.03</ele><time>2011-11-13T09:50:06Z</time></trkpt><trkpt lat="46.4808774367" lon="10.3915071208"><ele>2079.95</ele><time>2011-11-13T09:50:21Z</time></trkpt><trkpt lat="46.4809160773" lon="10.3914673906"><ele>2082.83</ele><time>2011-11-13T09:50:34Z</time></trkpt><trkpt lat="46.4809568971" lon="10.3914355393"><ele>2084.28</ele><time>2011-11-13T09:50:43Z</time></trkpt><trkpt lat="46.4810306579" lon="10.3914057836"><ele>2086.20</ele><time>2011-11-13T09:50:55Z</time></trkpt><trkpt lat="46.4811267145" lon="10.3913195338"><ele>2089.56</ele><time>2011-11-13T09:51:10Z</time></trkpt><trkpt lat="46.4811942726" lon="10.3912841622"><ele>2090.52</ele><time>2011-11-13T09:51:27Z</time></trkpt><trkpt lat="46.4812131319" lon="10.3912905324"><ele>2092.45</ele><time>2011-11-13T09:51:42Z</time></trkpt><trkpt lat="46.4812152274" lon="10.3912888560"><ele>2091.97</ele><time>2011-11-13T09:52:13Z</time></trkpt><trkpt lat="46.4812152274" lon="10.3912888560"><ele>2091.97</ele><time>2011-11-13T09:52:29Z</time></trkpt><trkpt lat="46.4812966157" lon="10.3911979962"><ele>2093.41</ele><time>2011-11-13T09:52:45Z</time></trkpt><trkpt lat="46.4813593961" lon="10.3911451064"><ele>2095.81</ele><time>2011-11-13T09:53:00Z</time></trkpt><trkpt lat="46.4813790936" lon="10.3911259957"><ele>2096.29</ele><time>2011-11-13T09:53:18Z</time></trkpt><trkpt lat="46.4815072529" lon="10.3910312802"><ele>2099.18</ele><time>2011-11-13T09:53:34Z</time></trkpt><trkpt lat="46.4816294611" lon="10.3909495566"><ele>2100.62</ele><time>2011-11-13T09:53:49Z</time></trkpt><trkpt lat="46.4817063231" lon="10.3908970859"><ele>2103.50</ele><time>2011-11-13T09:54:02Z</time></trkpt><trkpt lat="46.4818426128" lon="10.3908726946"><ele>2105.42</ele><time>2011-11-13T09:54:18Z</time></trkpt><trkpt lat="46.4818262681" lon="10.3909283504"><ele>2107.35</ele><time>2011-11-13T09:54:34Z</time></trkpt><trkpt lat="46.4817857835" lon="10.3910594434"><ele>2110.23</ele><time>2011-11-13T09:54:49Z</time></trkpt><trkpt lat="46.4817257691" lon="10.3912022710"><ele>2113.60</ele><time>2011-11-13T09:55:08Z</time></trkpt><trkpt lat="46.4816962648" lon="10.3913974017"><ele>2116.00</ele><time>2011-11-13T09:55:23Z</time></trkpt><trkpt lat="46.4816495776" lon="10.3915234655"><ele>2118.40</ele><time>2011-11-13T09:55:37Z</time></trkpt><trkpt lat="46.4816157985" lon="10.3916706517"><ele>2120.32</ele><time>2011-11-13T09:55:52Z</time></trkpt><trkpt lat="46.4816298801" lon="10.3916500323"><ele>2121.77</ele><time>2011-11-13T09:56:11Z</time></trkpt><trkpt lat="46.4817242604" lon="10.3915886767"><ele>2124.65</ele><time>2011-11-13T09:56:26Z</time></trkpt><trkpt lat="46.4817916509" lon="10.3915739246"><ele>2127.05</ele><time>2011-11-13T09:56:40Z</time></trkpt><trkpt lat="46.4818126895" lon="10.3915479407"><ele>2127.53</ele><time>2011-11-13T09:57:02Z</time></trkpt><trkpt lat="46.4818463009" lon="10.3915342782"><ele>2128.98</ele><time>2011-11-13T09:57:25Z</time></trkpt><trkpt lat="46.4818375837" lon="10.3916165885"><ele>2130.42</ele><time>2011-11-13T09:57:43Z</time></trkpt><trkpt lat="46.4818308782" lon="10.3917397186"><ele>2132.82</ele><time>2011-11-13T09:57:56Z</time></trkpt><trkpt lat="46.4818190597" lon="10.3917932790"><ele>2133.30</ele><time>2011-11-13T09:58:12Z</time></trkpt><trkpt lat="46.4817767311" lon="10.3918320872"><ele>2132.82</ele><time>2011-11-13T09:58:15Z</time></trkpt><trkpt lat="46.4817202371" lon="10.3919515293"><ele>2133.30</ele><time>2011-11-13T09:58:31Z</time></trkpt><trkpt lat="46.4816936664" lon="10.3920444008"><ele>2132.82</ele><time>2011-11-13T09:58:48Z</time></trkpt><trkpt lat="46.4816876315" lon="10.3920514416"><ele>2132.82</ele><time>2011-11-13T09:59:04Z</time></trkpt><trkpt lat="46.4816876315" lon="10.3920514416"><ele>2133.78</ele><time>2011-11-13T09:59:09Z</time></trkpt><trkpt lat="46.4816876315" lon="10.3920514416"><ele>2133.30</ele><time>2011-11-13T09:59:18Z</time></trkpt><trkpt lat="46.4816876315" lon="10.3920514416"><ele>2136.67</ele><time>2011-11-13T09:59:19Z</time></trkpt><trkpt lat="46.4816876315" lon="10.3920514416"><ele>2130.42</ele><time>2011-11-13T09:59:20Z</time></trkpt><trkpt lat="46.4816876315" lon="10.3920514416"><ele>2134.74</ele><time>2011-11-13T09:59:22Z</time></trkpt><trkpt lat="46.4816876315" lon="10.3920514416"><ele>2130.42</ele><time>2011-11-13T09:59:24Z</time></trkpt><trkpt lat="46.4816876315" lon="10.3920514416"><ele>2131.38</ele><time>2011-11-13T09:59:28Z</time></trkpt><trkpt lat="46.4816876315" lon="10.3920514416"><ele>2135.71</ele><time>2011-11-13T09:59:30Z</time></trkpt><trkpt lat="46.4816864580" lon="10.3920524474"><ele>2128.98</ele><time>2011-11-13T09:59:31Z</time></trkpt><trkpt lat="46.4816843625" lon="10.3920513578"><ele>2133.78</ele><time>2011-11-13T09:59:32Z</time></trkpt><trkpt lat="46.4816806745" lon="10.3920495976"><ele>2128.50</ele><time>2011-11-13T09:59:35Z</time></trkpt><trkpt lat="46.4816806745" lon="10.3920495976"><ele>2134.26</ele><time>2011-11-13T09:59:36Z</time></trkpt><trkpt lat="46.4816774894" lon="10.3920501843"><ele>2131.86</ele><time>2011-11-13T09:59:55Z</time></trkpt><trkpt lat="46.4816765673" lon="10.3920521121"><ele>2132.34</ele><time>2011-11-13T10:00:27Z</time></trkpt><trkpt lat="46.4816765673" lon="10.3920521121"><ele>2131.86</ele><time>2011-11-13T10:01:03Z</time></trkpt><trkpt lat="46.4816819318" lon="10.3920521121"><ele>2131.86</ele><time>2011-11-13T10:01:40Z</time></trkpt><trkpt lat="46.4816838596" lon="10.3920528665"><ele>2131.86</ele><time>2011-11-13T10:02:13Z</time></trkpt><trkpt lat="46.4816811774" lon="10.3920508549"><ele>2132.34</ele><time>2011-11-13T10:02:45Z</time></trkpt><trkpt lat="46.4816786628" lon="10.3920510225"><ele>2132.34</ele><time>2011-11-13T10:03:12Z</time></trkpt><trkpt lat="46.4816776570" lon="10.3920542076"><ele>2132.34</ele><time>2011-11-13T10:03:51Z</time></trkpt><trkpt lat="46.4816776570" lon="10.3920542076"><ele>2131.86</ele><time>2011-11-13T10:04:21Z</time></trkpt><trkpt lat="46.4816769864" lon="10.3920571413"><ele>2132.34</ele><time>2011-11-13T10:04:50Z</time></trkpt><trkpt lat="46.4816766512" lon="10.3920583986"><ele>2131.86</ele><time>2011-11-13T10:05:19Z</time></trkpt><trkpt lat="46.4816753939" lon="10.3920614161"><ele>2132.34</ele><time>2011-11-13T10:05:47Z</time></trkpt><trkpt lat="46.4816753939" lon="10.3920614161"><ele>2132.34</ele><time>2011-11-13T10:06:22Z</time></trkpt><trkpt lat="46.4816739690" lon="10.3920635954"><ele>2131.86</ele><time>2011-11-13T10:06:55Z</time></trkpt><trkpt lat="46.4816700295" lon="10.3920708876"><ele>2131.86</ele><time>2011-11-13T10:07:28Z</time></trkpt><trkpt lat="46.4816692751" lon="10.3920687083"><ele>2131.86</ele><time>2011-11-13T10:07:54Z</time></trkpt><trkpt lat="46.4816655871" lon="10.3920651879"><ele>2131.86</ele><time>2011-11-13T10:08:25Z</time></trkpt><trkpt lat="46.4816655871" lon="10.3920651879"><ele>2132.34</ele><time>2011-11-13T10:08:58Z</time></trkpt><trkpt lat="46.4816636592" lon="10.3920672834"><ele>2131.86</ele><time>2011-11-13T10:09:32Z</time></trkpt><trkpt lat="46.4816634078" lon="10.3920653556"><ele>2131.86</ele><time>2011-11-13T10:10:02Z</time></trkpt><trkpt lat="46.4816638269" lon="10.3920673672"><ele>2132.34</ele><time>2011-11-13T10:10:33Z</time></trkpt><trkpt lat="46.4816635754" lon="10.3920691274"><ele>2132.34</ele><time>2011-11-13T10:11:07Z</time></trkpt><trkpt lat="46.4816635754" lon="10.3920691274"><ele>2132.34</ele><time>2011-11-13T10:11:43Z</time></trkpt><trkpt lat="46.4816615637" lon="10.3920661937"><ele>2131.86</ele><time>2011-11-13T10:12:18Z</time></trkpt><trkpt lat="46.4816635754" lon="10.3920646850"><ele>2132.34</ele><time>2011-11-13T10:12:56Z</time></trkpt><trkpt lat="46.4816653356" lon="10.3920643497"><ele>2131.86</ele><time>2011-11-13T10:13:30Z</time></trkpt><trkpt lat="46.4816709515" lon="10.3920617513"><ele>2131.86</ele><time>2011-11-13T10:14:00Z</time></trkpt><trkpt lat="46.4816720411" lon="10.3920628410"><ele>2131.86</ele><time>2011-11-13T10:14:30Z</time></trkpt><trkpt lat="46.4816720411" lon="10.3920628410"><ele>2131.86</ele><time>2011-11-13T10:15:02Z</time></trkpt><trkpt lat="46.4816737175" lon="10.3920616675"><ele>2132.34</ele><time>2011-11-13T10:15:40Z</time></trkpt><trkpt lat="46.4816737175" lon="10.3920554649"><ele>2132.34</ele><time>2011-11-13T10:16:07Z</time></trkpt><trkpt lat="46.4816665091" lon="10.3920376115"><ele>2132.34</ele><time>2011-11-13T10:16:09Z</time></trkpt><trkpt lat="46.4816434588" lon="10.3919680417"><ele>2132.34</ele><time>2011-11-13T10:16:14Z</time></trkpt><trkpt lat="46.4818685967" lon="10.3924733028"><ele>2132.34</ele><time>2011-11-13T10:16:25Z</time></trkpt><trkpt lat="46.4820874482" lon="10.3929369897"><ele>2132.34</ele><time>2011-11-13T10:16:41Z</time></trkpt><trkpt lat="46.4820649009" lon="10.3928567749"><ele>2132.82</ele><time>2011-11-13T10:17:06Z</time></trkpt><trkpt lat="46.4818652440" lon="10.3924326506"><ele>2132.82</ele><time>2011-11-13T10:17:37Z</time></trkpt><trkpt lat="46.4818085823" lon="10.3923059162"><ele>2132.82</ele><time>2011-11-13T10:18:09Z</time></trkpt><trkpt lat="46.4818085823" lon="10.3923059162"><ele>2132.34</ele><time>2011-11-13T10:18:45Z</time></trkpt><trkpt lat="46.4817559440" lon="10.3922279645"><ele>2132.34</ele><time>2011-11-13T10:19:23Z</time></trkpt><trkpt lat="46.4817155432" lon="10.3921588976"><ele>2132.82</ele><time>2011-11-13T10:20:01Z</time></trkpt><trkpt lat="46.4816979412" lon="10.3921300638"><ele>2132.82</ele><time>2011-11-13T10:20:38Z</time></trkpt><trkpt lat="46.4816787466" lon="10.3920977935"><ele>2132.82</ele><time>2011-11-13T10:21:14Z</time></trkpt><trkpt lat="46.4816727117" lon="10.3920835443"><ele>2132.82</ele><time>2011-11-13T10:21:51Z</time></trkpt><trkpt lat="46.4816705324" lon="10.3920780122"><ele>2132.82</ele><time>2011-11-13T10:22:24Z</time></trkpt><trkpt lat="46.4816679340" lon="10.3920707200"><ele>2131.86</ele><time>2011-11-13T10:22:55Z</time></trkpt><trkpt lat="46.4816679340" lon="10.3920707200"><ele>2132.82</ele><time>2011-11-13T10:23:22Z</time></trkpt><trkpt lat="46.4816670120" lon="10.3920649365"><ele>2132.82</ele><time>2011-11-13T10:23:54Z</time></trkpt><trkpt lat="46.4816660061" lon="10.3920609970"><ele>2132.82</ele><time>2011-11-13T10:24:27Z</time></trkpt><trkpt lat="46.4816653356" lon="10.3920635115"><ele>2132.34</ele><time>2011-11-13T10:25:01Z</time></trkpt><trkpt lat="46.4816625696" lon="10.3920546267"><ele>2132.34</ele><time>2011-11-13T10:25:33Z</time></trkpt><trkpt lat="46.4816625696" lon="10.3920546267"><ele>2132.34</ele><time>2011-11-13T10:26:05Z</time></trkpt><trkpt lat="46.4816612285" lon="10.3920550458"><ele>2132.82</ele><time>2011-11-13T10:26:36Z</time></trkpt><trkpt lat="46.4816564508" lon="10.3920515254"><ele>2132.82</ele><time>2011-11-13T10:27:11Z</time></trkpt><trkpt lat="46.4816573728" lon="10.3920496814"><ele>2132.82</ele><time>2011-11-13T10:27:46Z</time></trkpt><trkpt lat="46.4816565346" lon="10.3920548782"><ele>2132.34</ele><time>2011-11-13T10:28:15Z</time></trkpt><trkpt lat="46.4816561155" lon="10.3920556325"><ele>2132.34</ele><time>2011-11-13T10:28:49Z</time></trkpt><trkpt lat="46.4816561155" lon="10.3920556325"><ele>2132.82</ele><time>2011-11-13T10:29:21Z</time></trkpt><trkpt lat="46.4816567022" lon="10.3920577280"><ele>2132.34</ele><time>2011-11-13T10:29:54Z</time></trkpt><trkpt lat="46.4816574566" lon="10.3920552135"><ele>2132.34</ele><time>2011-11-13T10:30:28Z</time></trkpt><trkpt lat="46.4816560317" lon="10.3920554649"><ele>2132.82</ele><time>2011-11-13T10:31:00Z</time></trkpt><trkpt lat="46.4816551935" lon="10.3920605779"><ele>2132.82</ele><time>2011-11-13T10:31:30Z</time></trkpt><trkpt lat="46.4816551935" lon="10.3920605779"><ele>2132.82</ele><time>2011-11-13T10:32:01Z</time></trkpt><trkpt lat="46.4816536009" lon="10.3920593206"><ele>2132.82</ele><time>2011-11-13T10:32:38Z</time></trkpt><trkpt lat="46.4816521760" lon="10.3920641821"><ele>2133.30</ele><time>2011-11-13T10:33:15Z</time></trkpt><trkpt lat="46.4816520922" lon="10.3920612484"><ele>2132.82</ele><time>2011-11-13T10:33:45Z</time></trkpt><trkpt lat="46.4816504996" lon="10.3920589015"><ele>2132.82</ele><time>2011-11-13T10:34:13Z</time></trkpt><trkpt lat="46.4816504996" lon="10.3920589015"><ele>2132.82</ele><time>2011-11-13T10:34:46Z</time></trkpt><trkpt lat="46.4816473983" lon="10.3920508549"><ele>2132.34</ele><time>2011-11-13T10:35:21Z</time></trkpt><trkpt lat="46.4816463925" lon="10.3920469992"><ele>2131.86</ele><time>2011-11-13T10:35:54Z</time></trkpt><trkpt lat="46.4816458896" lon="10.3920461610"><ele>2132.34</ele><time>2011-11-13T10:36:26Z</time></trkpt><trkpt lat="46.4816448838" lon="10.3920459934"><ele>2131.86</ele><time>2011-11-13T10:36:56Z</time></trkpt><trkpt lat="46.4816448838" lon="10.3920459934"><ele>2131.86</ele><time>2011-11-13T10:37:24Z</time></trkpt><trkpt lat="46.4816456381" lon="10.3920475859"><ele>2132.34</ele><time>2011-11-13T10:37:52Z</time></trkpt><trkpt lat="46.4816449676" lon="10.3920501005"><ele>2131.86</ele><time>2011-11-13T10:38:19Z</time></trkpt><trkpt lat="46.4816449676" lon="10.3920501005"><ele>2132.34</ele><time>2011-11-13T10:38:46Z</time></trkpt><trkpt lat="46.4816446323" lon="10.3920501005"><ele>2132.34</ele><time>2011-11-13T10:39:15Z</time></trkpt><trkpt lat="46.4816456381" lon="10.3920471668"><ele>2132.34</ele><time>2011-11-13T10:39:46Z</time></trkpt><trkpt lat="46.4816469792" lon="10.3920509387"><ele>2132.34</ele><time>2011-11-13T10:40:18Z</time></trkpt><trkpt lat="46.4816446323" lon="10.3920444008"><ele>2131.86</ele><time>2011-11-13T10:40:47Z</time></trkpt><trkpt lat="46.4816446323" lon="10.3920444008"><ele>2132.34</ele><time>2011-11-13T10:41:16Z</time></trkpt><trkpt lat="46.4816463087" lon="10.3920437302"><ele>2131.86</ele><time>2011-11-13T10:41:45Z</time></trkpt><trkpt lat="46.4816467278" lon="10.3920449037"><ele>2131.86</ele><time>2011-11-13T10:42:12Z</time></trkpt><trkpt lat="46.4816479851" lon="10.3920484241"><ele>2131.86</ele><time>2011-11-13T10:42:47Z</time></trkpt><trkpt lat="46.4816479851" lon="10.3920484241"><ele>2131.86</ele><time>2011-11-13T10:43:16Z</time></trkpt><trkpt lat="46.4816509187" lon="10.3920516931"><ele>2132.34</ele><time>2011-11-13T10:43:44Z</time></trkpt><trkpt lat="46.4816510864" lon="10.3920485079"><ele>2131.86</ele><time>2011-11-13T10:44:08Z</time></trkpt><trkpt lat="46.4816510864" lon="10.3920485079"><ele>2132.34</ele><time>2011-11-13T10:44:40Z</time></trkpt><trkpt lat="46.4816503320" lon="10.3920491785"><ele>2131.86</ele><time>2011-11-13T10:45:12Z</time></trkpt><trkpt lat="46.4816500805" lon="10.3920488432"><ele>2132.34</ele><time>2011-11-13T10:45:44Z</time></trkpt><trkpt lat="46.4816480689" lon="10.3920479212"><ele>2132.82</ele><time>2011-11-13T10:46:11Z</time></trkpt><trkpt lat="46.4816480689" lon="10.3920479212"><ele>2132.82</ele><time>2011-11-13T10:46:40Z</time></trkpt><trkpt lat="46.4816474821" lon="10.3920454066"><ele>2133.30</ele><time>2011-11-13T10:47:10Z</time></trkpt><trkpt lat="46.4816437103" lon="10.3920456581"><ele>2132.82</ele><time>2011-11-13T10:47:41Z</time></trkpt><trkpt lat="46.4816416148" lon="10.3920461610"><ele>2133.30</ele><time>2011-11-13T10:48:09Z</time></trkpt><trkpt lat="46.4816416148" lon="10.3920461610"><ele>2132.82</ele><time>2011-11-13T10:48:33Z</time></trkpt><trkpt lat="46.4816437941" lon="10.3920456581"><ele>2132.82</ele><time>2011-11-13T10:48:57Z</time></trkpt><trkpt lat="46.4816445485" lon="10.3920475021"><ele>2132.82</ele><time>2011-11-13T10:49:27Z</time></trkpt><trkpt lat="46.4816445485" lon="10.3920475021"><ele>2133.30</ele><time>2011-11-13T10:49:57Z</time></trkpt><trkpt lat="46.4816455543" lon="10.3920477536"><ele>2132.82</ele><time>2011-11-13T10:50:25Z</time></trkpt><trkpt lat="46.4816468954" lon="10.3920468315"><ele>2133.30</ele><time>2011-11-13T10:50:52Z</time></trkpt><trkpt lat="46.4816468954" lon="10.3920468315"><ele>2133.30</ele><time>2011-11-13T10:51:22Z</time></trkpt><trkpt lat="46.4816465601" lon="10.3920479212"><ele>2133.30</ele><time>2011-11-13T10:51:52Z</time></trkpt><trkpt lat="46.4816447161" lon="10.3920494299"><ele>2133.78</ele><time>2011-11-13T10:52:20Z</time></trkpt><trkpt lat="46.4816430397" lon="10.3920503519"><ele>2134.26</ele><time>2011-11-13T10:52:51Z</time></trkpt><trkpt lat="46.4816430397" lon="10.3920503519"><ele>2133.30</ele><time>2011-11-13T10:53:24Z</time></trkpt><trkpt lat="46.4816466440" lon="10.3920450713"><ele>2134.26</ele><time>2011-11-13T10:53:44Z</time></trkpt><trkpt lat="46.4816403575" lon="10.3920451552"><ele>2134.26</ele><time>2011-11-13T10:54:15Z</time></trkpt><trkpt lat="46.4816403575" lon="10.3920451552"><ele>2134.26</ele><time>2011-11-13T10:54:46Z</time></trkpt><trkpt lat="46.4816357475" lon="10.3920452390"><ele>2134.74</ele><time>2011-11-13T10:55:18Z</time></trkpt><trkpt lat="46.4816317242" lon="10.3920450713"><ele>2134.26</ele><time>2011-11-13T10:55:51Z</time></trkpt><trkpt lat="46.4816310536" lon="10.3920408804"><ele>2134.26</ele><time>2011-11-13T10:56:24Z</time></trkpt><trkpt lat="46.4816297963" lon="10.3920423053"><ele>2133.78</ele><time>2011-11-13T10:56:56Z</time></trkpt><trkpt lat="46.4816297963" lon="10.3920423053"><ele>2134.26</ele><time>2011-11-13T10:57:28Z</time></trkpt><trkpt lat="46.4816331491" lon="10.3920466639"><ele>2134.74</ele><time>2011-11-13T10:58:00Z</time></trkpt><trkpt lat="46.4816326462" lon="10.3920521960"><ele>2134.74</ele><time>2011-11-13T10:58:31Z</time></trkpt><trkpt lat="46.4816349931" lon="10.3920610808"><ele>2134.74</ele><time>2011-11-13T10:59:03Z</time></trkpt><trkpt lat="46.4816324785" lon="10.3920625057"><ele>2135.23</ele><time>2011-11-13T10:59:35Z</time></trkpt><trkpt lat="46.4816324785" lon="10.3920625057"><ele>2135.23</ele><time>2011-11-13T11:00:08Z</time></trkpt><trkpt lat="46.4816318080" lon="10.3920647688"><ele>2135.23</ele><time>2011-11-13T11:00:38Z</time></trkpt><trkpt lat="46.4816320594" lon="10.3920663614"><ele>2135.71</ele><time>2011-11-13T11:01:14Z</time></trkpt><trkpt lat="46.4816317242" lon="10.3920661099"><ele>2135.23</ele><time>2011-11-13T11:01:51Z</time></trkpt><trkpt lat="46.4816299640" lon="10.3920665290"><ele>2135.71</ele><time>2011-11-13T11:02:25Z</time></trkpt><trkpt lat="46.4816301316" lon="10.3920682054"><ele>2135.71</ele><time>2011-11-13T11:02:54Z</time></trkpt><trkpt lat="46.4816301316" lon="10.3920682054"><ele>2135.71</ele><time>2011-11-13T11:03:23Z</time></trkpt><trkpt lat="46.4816284552" lon="10.3920663614"><ele>2135.71</ele><time>2011-11-13T11:03:53Z</time></trkpt><trkpt lat="46.4816264436" lon="10.3920710552"><ele>2136.19</ele><time>2011-11-13T11:04:31Z</time></trkpt><trkpt lat="46.4816250186" lon="10.3920696303"><ele>2136.67</ele><time>2011-11-13T11:05:04Z</time></trkpt><trkpt lat="46.4816215821" lon="10.3920723125"><ele>2136.19</ele><time>2011-11-13T11:05:38Z</time></trkpt><trkpt lat="46.4816215821" lon="10.3920723125"><ele>2135.71</ele><time>2011-11-13T11:06:10Z</time></trkpt><trkpt lat="46.4816213306" lon="10.3920682054"><ele>2136.67</ele><time>2011-11-13T11:06:44Z</time></trkpt><trkpt lat="46.4816235937" lon="10.3920687083"><ele>2137.15</ele><time>2011-11-13T11:07:14Z</time></trkpt><trkpt lat="46.4816220850" lon="10.3920677025"><ele>2136.67</ele><time>2011-11-13T11:07:44Z</time></trkpt><trkpt lat="46.4816245995" lon="10.3920684569"><ele>2137.15</ele><time>2011-11-13T11:08:17Z</time></trkpt><trkpt lat="46.4816245995" lon="10.3920684569"><ele>2137.15</ele><time>2011-11-13T11:08:51Z</time></trkpt><trkpt lat="46.4816231746" lon="10.3920632601"><ele>2137.15</ele><time>2011-11-13T11:09:22Z</time></trkpt><trkpt lat="46.4816252701" lon="10.3920616675"><ele>2138.11</ele><time>2011-11-13T11:09:52Z</time></trkpt><trkpt lat="46.4816281199" lon="10.3920677863"><ele>2137.63</ele><time>2011-11-13T11:10:19Z</time></trkpt><trkpt lat="46.4816281199" lon="10.3920677863"><ele>2137.63</ele><time>2011-11-13T11:10:47Z</time></trkpt><trkpt lat="46.4816291258" lon="10.3920753300"><ele>2138.11</ele><time>2011-11-13T11:11:12Z</time></trkpt><trkpt lat="46.4816207439" lon="10.3920759168"><ele>2138.11</ele><time>2011-11-13T11:11:38Z</time></trkpt><trkpt lat="46.4816207439" lon="10.3920759168"><ele>2138.59</ele><time>2011-11-13T11:12:07Z</time></trkpt><trkpt lat="46.4816287067" lon="10.3920588177"><ele>2138.59</ele><time>2011-11-13T11:12:40Z</time></trkpt><trkpt lat="46.4816308022" lon="10.3920471668"><ele>2139.07</ele><time>2011-11-13T11:13:12Z</time></trkpt><trkpt lat="46.4816234261" lon="10.3920435626"><ele>2139.07</ele><time>2011-11-13T11:13:42Z</time></trkpt><trkpt lat="46.4816234261" lon="10.3920435626"><ele>2139.07</ele><time>2011-11-13T11:14:12Z</time></trkpt><trkpt lat="46.4816214982" lon="10.3920421377"><ele>2139.55</ele><time>2011-11-13T11:14:43Z</time></trkpt><trkpt lat="46.4816314727" lon="10.3920632601"><ele>2140.03</ele><time>2011-11-13T11:14:59Z</time></trkpt><trkpt lat="46.4816039801" lon="10.3920611646"><ele>2136.67</ele><time>2011-11-13T11:15:12Z</time></trkpt><trkpt lat="46.4816039801" lon="10.3920611646"><ele>2138.11</ele><time>2011-11-13T11:15:13Z</time></trkpt><trkpt lat="46.4816039801" lon="10.3920611646"><ele>2139.55</ele><time>2011-11-13T11:15:16Z</time></trkpt><trkpt lat="46.4816039801" lon="10.3920611646"><ele>2138.11</ele><time>2011-11-13T11:15:18Z</time></trkpt><trkpt lat="46.4816039801" lon="10.3920611646"><ele>2141.47</ele><time>2011-11-13T11:15:20Z</time></trkpt><trkpt lat="46.4816039801" lon="10.3920611646"><ele>2138.59</ele><time>2011-11-13T11:15:21Z</time></trkpt><trkpt lat="46.4816021360" lon="10.3920734860"><ele>2138.59</ele><time>2011-11-13T11:15:22Z</time></trkpt><trkpt lat="46.4816048183" lon="10.3920987155"><ele>2140.03</ele><time>2011-11-13T11:15:24Z</time></trkpt><trkpt lat="46.4816155471" lon="10.3921253700"><ele>2143.40</ele><time>2011-11-13T11:15:28Z</time></trkpt><trkpt lat="46.4816188999" lon="10.3921312373"><ele>2140.03</ele><time>2011-11-13T11:15:29Z</time></trkpt><trkpt lat="46.4815779962" lon="10.3921847139"><ele>2136.67</ele><time>2011-11-13T11:15:41Z</time></trkpt><trkpt lat="46.4815251064" lon="10.3922517691"><ele>2136.19</ele><time>2011-11-13T11:15:57Z</time></trkpt><trkpt lat="46.4814497530" lon="10.3923048265"><ele>2132.82</ele><time>2011-11-13T11:16:10Z</time></trkpt><trkpt lat="46.4814462326" lon="10.3923111130"><ele>2132.82</ele><time>2011-11-13T11:16:11Z</time></trkpt><trkpt lat="46.4814276248" lon="10.3923272062"><ele>2131.86</ele><time>2011-11-13T11:16:14Z</time></trkpt><trkpt lat="46.4813536126" lon="10.3923462331"><ele>2128.98</ele><time>2011-11-13T11:16:29Z</time></trkpt><trkpt lat="46.4812863898" lon="10.3923317324"><ele>2125.61</ele><time>2011-11-13T11:16:39Z</time></trkpt><trkpt lat="46.4812187478" lon="10.3923932556"><ele>2122.25</ele><time>2011-11-13T11:16:52Z</time></trkpt><trkpt lat="46.4812163170" lon="10.3924040683"><ele>2122.25</ele><time>2011-11-13T11:16:53Z</time></trkpt><trkpt lat="46.4812120423" lon="10.3924383502"><ele>2122.73</ele><time>2011-11-13T11:17:15Z</time></trkpt><trkpt lat="46.4812218491" lon="10.3924795054"><ele>2121.29</ele><time>2011-11-13T11:17:33Z</time></trkpt><trkpt lat="46.4812911674" lon="10.3925062437"><ele>2118.40</ele><time>2011-11-13T11:17:49Z</time></trkpt><trkpt lat="46.4812982082" lon="10.3925075848"><ele>2118.40</ele><time>2011-11-13T11:17:50Z</time></trkpt><trkpt lat="46.4813692868" lon="10.3925518412"><ele>2116.48</ele><time>2011-11-13T11:18:00Z</time></trkpt><trkpt lat="46.4814966079" lon="10.3926048148"><ele>2114.56</ele><time>2011-11-13T11:18:16Z</time></trkpt><trkpt lat="46.4815986995" lon="10.3926876280"><ele>2111.67</ele><time>2011-11-13T11:18:29Z</time></trkpt><trkpt lat="46.4816223364" lon="10.3928245883"><ele>2107.83</ele><time>2011-11-13T11:18:43Z</time></trkpt><trkpt lat="46.4816179778" lon="10.3929332178"><ele>2105.91</ele><time>2011-11-13T11:18:56Z</time></trkpt><trkpt lat="46.4816762321" lon="10.3930263408"><ele>2103.50</ele><time>2011-11-13T11:19:14Z</time></trkpt><trkpt lat="46.4816920739" lon="10.3930324595"><ele>2102.54</ele><time>2011-11-13T11:19:33Z</time></trkpt><trkpt lat="46.4816966001" lon="10.3930444457"><ele>2102.54</ele><time>2011-11-13T11:19:34Z</time></trkpt><trkpt lat="46.4817173872" lon="10.3930884507"><ele>2100.14</ele><time>2011-11-13T11:19:49Z</time></trkpt><trkpt lat="46.4817724563" lon="10.3931944817"><ele>2097.25</ele><time>2011-11-13T11:20:03Z</time></trkpt><trkpt lat="46.4817711152" lon="10.3932876885"><ele>2093.89</ele><time>2011-11-13T11:20:17Z</time></trkpt><trkpt lat="46.4817121904" lon="10.3933332860"><ele>2092.93</ele><time>2011-11-13T11:20:31Z</time></trkpt><trkpt lat="46.4817030542" lon="10.3933975752"><ele>2089.56</ele><time>2011-11-13T11:20:41Z</time></trkpt><trkpt lat="46.4817010425" lon="10.3934706654"><ele>2087.16</ele><time>2011-11-13T11:20:54Z</time></trkpt><trkpt lat="46.4816882182" lon="10.3935490362"><ele>2083.31</ele><time>2011-11-13T11:21:04Z</time></trkpt><trkpt lat="46.4816808421" lon="10.3935540654"><ele>2083.31</ele><time>2011-11-13T11:21:05Z</time></trkpt><trkpt lat="46.4816630725" lon="10.3936400637"><ele>2079.95</ele><time>2011-11-13T11:21:15Z</time></trkpt><trkpt lat="46.4816647489" lon="10.3936478589"><ele>2079.95</ele><time>2011-11-13T11:21:16Z</time></trkpt><trkpt lat="46.4816551097" lon="10.3937891778"><ele>2077.55</ele><time>2011-11-13T11:21:32Z</time></trkpt><trkpt lat="46.4815982804" lon="10.3938358650"><ele>2074.66</ele><time>2011-11-13T11:21:40Z</time></trkpt><trkpt lat="46.4814821072" lon="10.3938582446"><ele>2071.30</ele><time>2011-11-13T11:21:54Z</time></trkpt><trkpt lat="46.4813745674" lon="10.3938315064"><ele>2067.93</ele><time>2011-11-13T11:22:07Z</time></trkpt><trkpt lat="46.4813278802" lon="10.3938498627"><ele>2066.49</ele><time>2011-11-13T11:22:13Z</time></trkpt><trkpt lat="46.4812772535" lon="10.3938745894"><ele>2064.09</ele><time>2011-11-13T11:22:21Z</time></trkpt><trkpt lat="46.4811248705" lon="10.3939390462"><ele>2060.72</ele><time>2011-11-13T11:22:38Z</time></trkpt><trkpt lat="46.4810949471" lon="10.3939501941"><ele>2059.76</ele><time>2011-11-13T11:22:41Z</time></trkpt><trkpt lat="46.4808881655" lon="10.3939342685"><ele>2056.88</ele><time>2011-11-13T11:23:01Z</time></trkpt><trkpt lat="46.4808056876" lon="10.3939193487"><ele>2054.47</ele><time>2011-11-13T11:23:09Z</time></trkpt><trkpt lat="46.4806837309" lon="10.3939071950"><ele>2052.07</ele><time>2011-11-13T11:23:27Z</time></trkpt><trkpt lat="46.4806161728" lon="10.3938813787"><ele>2050.15</ele><time>2011-11-13T11:23:40Z</time></trkpt><trkpt lat="46.4806096349" lon="10.3938800376"><ele>2050.15</ele><time>2011-11-13T11:24:01Z</time></trkpt><trkpt lat="46.4806024265" lon="10.3938752599"><ele>2051.11</ele><time>2011-11-13T11:24:34Z</time></trkpt><trkpt lat="46.4804880135" lon="10.3939056862"><ele>2047.75</ele><time>2011-11-13T11:24:49Z</time></trkpt><trkpt lat="46.4803830720" lon="10.3939185943"><ele>2045.34</ele><time>2011-11-13T11:25:01Z</time></trkpt><trkpt lat="46.4803444315" lon="10.3939325083"><ele>2044.38</ele><time>2011-11-13T11:25:05Z</time></trkpt><trkpt lat="46.4802933857" lon="10.3939519543"><ele>2041.50</ele><time>2011-11-13T11:25:20Z</time></trkpt><trkpt lat="46.4802430943" lon="10.3939864039"><ele>2040.05</ele><time>2011-11-13T11:25:35Z</time></trkpt><trkpt lat="46.4802430943" lon="10.3939864039"><ele>2040.05</ele><time>2011-11-13T11:26:01Z</time></trkpt><trkpt lat="46.4802430104" lon="10.3939864039"><ele>2040.05</ele><time>2011-11-13T11:26:31Z</time></trkpt><trkpt lat="46.4802430943" lon="10.3939860687"><ele>2040.05</ele><time>2011-11-13T11:27:01Z</time></trkpt><trkpt lat="46.4802430943" lon="10.3939860687"><ele>2040.05</ele><time>2011-11-13T11:27:24Z</time></trkpt><trkpt lat="46.4802084770" lon="10.3940377850"><ele>2038.13</ele><time>2011-11-13T11:27:44Z</time></trkpt><trkpt lat="46.4801358059" lon="10.3941209335"><ele>2034.29</ele><time>2011-11-13T11:27:56Z</time></trkpt><trkpt lat="46.4800767135" lon="10.3942073509"><ele>2031.88</ele><time>2011-11-13T11:28:11Z</time></trkpt><trkpt lat="46.4800220635" lon="10.3942919243"><ele>2028.52</ele><time>2011-11-13T11:28:24Z</time></trkpt><trkpt lat="46.4799877815" lon="10.3943381086"><ele>2027.08</ele><time>2011-11-13T11:28:37Z</time></trkpt><trkpt lat="46.4799473807" lon="10.3943821136"><ele>2024.19</ele><time>2011-11-13T11:28:45Z</time></trkpt><trkpt lat="46.4798934013" lon="10.3944401164"><ele>2021.31</ele><time>2011-11-13T11:28:56Z</time></trkpt><trkpt lat="46.4798778109" lon="10.3944600653"><ele>2019.87</ele><time>2011-11-13T11:29:01Z</time></trkpt><trkpt lat="46.4798172098" lon="10.3945002146"><ele>2016.50</ele><time>2011-11-13T11:29:15Z</time></trkpt><trkpt lat="46.4798130188" lon="10.3945047408"><ele>2016.50</ele><time>2011-11-13T11:29:16Z</time></trkpt><trkpt lat="46.4797404315" lon="10.3945325688"><ele>2013.14</ele><time>2011-11-13T11:29:30Z</time></trkpt><trkpt lat="46.4797183871" lon="10.3945289645"><ele>2012.66</ele><time>2011-11-13T11:29:44Z</time></trkpt><trkpt lat="46.4797183871" lon="10.3945289645"><ele>2013.14</ele><time>2011-11-13T11:30:07Z</time></trkpt><trkpt lat="46.4797016233" lon="10.3945608996"><ele>2011.70</ele><time>2011-11-13T11:30:16Z</time></trkpt><trkpt lat="46.4796489011" lon="10.3945969418"><ele>2008.33</ele><time>2011-11-13T11:30:27Z</time></trkpt><trkpt lat="46.4796323888" lon="10.3946863767"><ele>2006.41</ele><time>2011-11-13T11:30:40Z</time></trkpt><trkpt lat="46.4796183072" lon="10.3947530128"><ele>2003.04</ele><time>2011-11-13T11:30:54Z</time></trkpt><trkpt lat="46.4796201512" lon="10.3948026337"><ele>2001.12</ele><time>2011-11-13T11:30:59Z</time></trkpt><trkpt lat="46.4795674291" lon="10.3949215729"><ele>1997.76</ele><time>2011-11-13T11:31:13Z</time></trkpt><trkpt lat="46.4795194007" lon="10.3949939087"><ele>1994.39</ele><time>2011-11-13T11:31:26Z</time></trkpt><trkpt lat="46.4795069955" lon="10.3950173780"><ele>1993.43</ele><time>2011-11-13T11:31:40Z</time></trkpt><trkpt lat="46.4794732165" lon="10.3950622212"><ele>1991.03</ele><time>2011-11-13T11:31:51Z</time></trkpt><trkpt lat="46.4794483222" lon="10.3951027058"><ele>1989.59</ele><time>2011-11-13T11:32:03Z</time></trkpt><trkpt lat="46.4793851227" lon="10.3951787297"><ele>1985.74</ele><time>2011-11-13T11:32:16Z</time></trkpt><trkpt lat="46.4793394413" lon="10.3952668235"><ele>1982.86</ele><time>2011-11-13T11:32:29Z</time></trkpt><trkpt lat="46.4793025609" lon="10.3953248262"><ele>1980.93</ele><time>2011-11-13T11:32:37Z</time></trkpt><trkpt lat="46.4792856295" lon="10.3954159375"><ele>1977.57</ele><time>2011-11-13T11:32:47Z</time></trkpt><trkpt lat="46.4792658482" lon="10.3955581784"><ele>1974.20</ele><time>2011-11-13T11:33:01Z</time></trkpt><trkpt lat="46.4792145509" lon="10.3956566658"><ele>1971.32</ele><time>2011-11-13T11:33:15Z</time></trkpt><trkpt lat="46.4792118687" lon="10.3956906963"><ele>1969.88</ele><time>2011-11-13T11:33:20Z</time></trkpt><trkpt lat="46.4791987929" lon="10.3957693186"><ele>1967.96</ele><time>2011-11-13T11:33:35Z</time></trkpt><trkpt lat="46.4791561291" lon="10.3958253097"><ele>1964.59</ele><time>2011-11-13T11:33:49Z</time></trkpt><trkpt lat="46.4790999703" lon="10.3958682250"><ele>1962.67</ele><time>2011-11-13T11:34:03Z</time></trkpt><trkpt lat="46.4790371060" lon="10.3959040157"><ele>1959.78</ele><time>2011-11-13T11:34:15Z</time></trkpt><trkpt lat="46.4790136367" lon="10.3959541395"><ele>1956.42</ele><time>2011-11-13T11:34:29Z</time></trkpt><trkpt lat="46.4789490122" lon="10.3959094640"><ele>1954.02</ele><time>2011-11-13T11:34:42Z</time></trkpt><trkpt lat="46.4789063483" lon="10.3958653752"><ele>1951.13</ele><time>2011-11-13T11:34:54Z</time></trkpt><trkpt lat="46.4788291510" lon="10.3958067019"><ele>1946.81</ele><time>2011-11-13T11:35:09Z</time></trkpt><trkpt lat="46.4788088668" lon="10.3957922850"><ele>1945.36</ele><time>2011-11-13T11:35:17Z</time></trkpt><trkpt lat="46.4787693880" lon="10.3957609367"><ele>1942.00</ele><time>2011-11-13T11:35:28Z</time></trkpt><trkpt lat="46.4787626825" lon="10.3957635351"><ele>1942.48</ele><time>2011-11-13T11:35:29Z</time></trkpt><trkpt lat="46.4786942862" lon="10.3957221285"><ele>1939.60</ele><time>2011-11-13T11:35:43Z</time></trkpt><trkpt lat="46.4786437433" lon="10.3956754413"><ele>1937.19</ele><time>2011-11-13T11:35:56Z</time></trkpt><trkpt lat="46.4786097128" lon="10.3956485353"><ele>1934.31</ele><time>2011-11-13T11:36:05Z</time></trkpt><trkpt lat="46.4785602596" lon="10.3956028540"><ele>1931.43</ele><time>2011-11-13T11:36:20Z</time></trkpt><trkpt lat="46.4785531349" lon="10.3956109844"><ele>1930.46</ele><time>2011-11-13T11:36:41Z</time></trkpt><trkpt lat="46.4785520453" lon="10.3956088051"><ele>1930.46</ele><time>2011-11-13T11:37:00Z</time></trkpt><trkpt lat="46.4785520453" lon="10.3956088051"><ele>1930.46</ele><time>2011-11-13T11:37:21Z</time></trkpt><trkpt lat="46.4785497822" lon="10.3956168517"><ele>1929.50</ele><time>2011-11-13T11:37:44Z</time></trkpt><trkpt lat="46.4785253908" lon="10.3956071287"><ele>1928.06</ele><time>2011-11-13T11:38:01Z</time></trkpt><trkpt lat="46.4784099720" lon="10.3955592681"><ele>1925.66</ele><time>2011-11-13T11:38:16Z</time></trkpt><trkpt lat="46.4783530589" lon="10.3955585975"><ele>1922.77</ele><time>2011-11-13T11:38:31Z</time></trkpt><trkpt lat="46.4783468563" lon="10.3955556639"><ele>1922.77</ele><time>2011-11-13T11:38:46Z</time></trkpt><trkpt lat="46.4783435035" lon="10.3955531493"><ele>1921.33</ele><time>2011-11-13T11:38:59Z</time></trkpt><trkpt lat="46.4783226326" lon="10.3955401573"><ele>1921.33</ele><time>2011-11-13T11:39:15Z</time></trkpt><trkpt lat="46.4782643784" lon="10.3954865132"><ele>1919.89</ele><time>2011-11-13T11:39:27Z</time></trkpt><trkpt lat="46.4782608580" lon="10.3954814002"><ele>1919.89</ele><time>2011-11-13T11:39:36Z</time></trkpt><trkpt lat="46.4781964011" lon="10.3955149278"><ele>1917.49</ele><time>2011-11-13T11:39:45Z</time></trkpt><trkpt lat="46.4781192038" lon="10.3954965714"><ele>1914.12</ele><time>2011-11-13T11:39:57Z</time></trkpt><trkpt lat="46.4780439343" lon="10.3954351321"><ele>1911.24</ele><time>2011-11-13T11:40:14Z</time></trkpt><trkpt lat="46.4779693354" lon="10.3953441884"><ele>1908.35</ele><time>2011-11-13T11:40:27Z</time></trkpt><trkpt lat="46.4779156912" lon="10.3952867724"><ele>1905.95</ele><time>2011-11-13T11:40:35Z</time></trkpt><trkpt lat="46.4778757934" lon="10.3952648118"><ele>1902.59</ele><time>2011-11-13T11:40:48Z</time></trkpt><trkpt lat="46.4778757934" lon="10.3952648118"><ele>1903.55</ele><time>2011-11-13T11:40:50Z</time></trkpt><trkpt lat="46.4778591972" lon="10.3952097427"><ele>1903.07</ele><time>2011-11-13T11:41:02Z</time></trkpt><trkpt lat="46.4778603707" lon="10.3952035401"><ele>1903.07</ele><time>2011-11-13T11:41:19Z</time></trkpt><trkpt lat="46.4778151922" lon="10.3951745387"><ele>1900.66</ele><time>2011-11-13T11:41:30Z</time></trkpt><trkpt lat="46.4777866099" lon="10.3951676656"><ele>1900.18</ele><time>2011-11-13T11:41:36Z</time></trkpt><trkpt lat="46.4777222369" lon="10.3951504827"><ele>1897.78</ele><time>2011-11-13T11:41:49Z</time></trkpt><trkpt lat="46.4776821714" lon="10.3951288573"><ele>1895.38</ele><time>2011-11-13T11:42:02Z</time></trkpt><trkpt lat="46.4776241686" lon="10.3950932343"><ele>1894.42</ele><time>2011-11-13T11:42:17Z</time></trkpt><trkpt lat="46.4775765594" lon="10.3950932343"><ele>1892.49</ele><time>2011-11-13T11:42:30Z</time></trkpt><trkpt lat="46.4775716141" lon="10.3950965870"><ele>1891.05</ele><time>2011-11-13T11:42:46Z</time></trkpt><trkpt lat="46.4775247592" lon="10.3951146081"><ele>1890.09</ele><time>2011-11-13T11:43:01Z</time></trkpt><trkpt lat="46.4774892200" lon="10.3950778954"><ele>1887.21</ele><time>2011-11-13T11:43:13Z</time></trkpt><trkpt lat="46.4774203207" lon="10.3949730378"><ele>1884.80</ele><time>2011-11-13T11:43:25Z</time></trkpt><trkpt lat="46.4774064068" lon="10.3948793281"><ele>1882.88</ele><time>2011-11-13T11:43:39Z</time></trkpt><trkpt lat="46.4774095081" lon="10.3948729578"><ele>1882.88</ele><time>2011-11-13T11:43:54Z</time></trkpt><trkpt lat="46.4773863740" lon="10.3948573675"><ele>1881.92</ele><time>2011-11-13T11:44:09Z</time></trkpt><trkpt lat="46.4773805067" lon="10.3948448785"><ele>1881.44</ele><time>2011-11-13T11:44:27Z</time></trkpt><trkpt lat="46.4773596358" lon="10.3948303778"><ele>1879.03</ele><time>2011-11-13T11:44:41Z</time></trkpt><trkpt lat="46.4773399383" lon="10.3947721235"><ele>1877.59</ele><time>2011-11-13T11:44:54Z</time></trkpt><trkpt lat="46.4773093443" lon="10.3947618138"><ele>1876.63</ele><time>2011-11-13T11:45:10Z</time></trkpt><trkpt lat="46.4772513416" lon="10.3948268574"><ele>1873.27</ele><time>2011-11-13T11:45:23Z</time></trkpt><trkpt lat="46.4772468992" lon="10.3948321380"><ele>1873.27</ele><time>2011-11-13T11:45:24Z</time></trkpt><trkpt lat="46.4771888126" lon="10.3948861174"><ele>1869.90</ele><time>2011-11-13T11:45:33Z</time></trkpt><trkpt lat="46.4771285467" lon="10.3949752171"><ele>1869.42</ele><time>2011-11-13T11:45:44Z</time></trkpt><trkpt lat="46.4770925045" lon="10.3950118460"><ele>1867.98</ele><time>2011-11-13T11:45:48Z</time></trkpt><trkpt lat="46.4770690352" lon="10.3950915579"><ele>1865.09</ele><time>2011-11-13T11:46:01Z</time></trkpt><trkpt lat="46.4770125411" lon="10.3952179570"><ele>1862.21</ele><time>2011-11-13T11:46:13Z</time></trkpt><trkpt lat="46.4770046622" lon="10.3953991737"><ele>1858.37</ele><time>2011-11-13T11:46:27Z</time></trkpt><trkpt lat="46.4769897424" lon="10.3955021035"><ele>1856.44</ele><time>2011-11-13T11:46:44Z</time></trkpt><trkpt lat="46.4769337513" lon="10.3955093119"><ele>1856.44</ele><time>2011-11-13T11:46:57Z</time></trkpt><trkpt lat="46.4769580588" lon="10.3955435939"><ele>1853.08</ele><time>2011-11-13T11:47:10Z</time></trkpt><trkpt lat="46.4769558795" lon="10.3955839947"><ele>1851.16</ele><time>2011-11-13T11:47:26Z</time></trkpt><trkpt lat="46.4769989625" lon="10.3957220446"><ele>1848.75</ele><time>2011-11-13T11:47:41Z</time></trkpt><trkpt lat="46.4770096075" lon="10.3958258964"><ele>1848.75</ele><time>2011-11-13T11:47:57Z</time></trkpt><trkpt lat="46.4770210907" lon="10.3959152475"><ele>1847.79</ele><time>2011-11-13T11:48:07Z</time></trkpt><trkpt lat="46.4770324063" lon="10.3959966358"><ele>1847.31</ele><time>2011-11-13T11:48:12Z</time></trkpt><trkpt lat="46.4770724718" lon="10.3960201051"><ele>1846.83</ele><time>2011-11-13T11:48:27Z</time></trkpt><trkpt lat="46.4770630002" lon="10.3960249666"><ele>1847.31</ele><time>2011-11-13T11:48:59Z</time></trkpt><trkpt lat="46.4770630002" lon="10.3960249666"><ele>1846.83</ele><time>2011-11-13T11:49:27Z</time></trkpt><trkpt lat="46.4770592283" lon="10.3960276488"><ele>1847.31</ele><time>2011-11-13T11:49:54Z</time></trkpt><trkpt lat="46.4770594798" lon="10.3960303310"><ele>1847.31</ele><time>2011-11-13T11:50:20Z</time></trkpt><trkpt lat="46.4770594798" lon="10.3960303310"><ele>1847.31</ele><time>2011-11-13T11:50:50Z</time></trkpt><trkpt lat="46.4770536125" lon="10.3960346896"><ele>1847.31</ele><time>2011-11-13T11:51:23Z</time></trkpt><trkpt lat="46.4770482481" lon="10.3960437421"><ele>1847.31</ele><time>2011-11-13T11:52:01Z</time></trkpt><trkpt lat="46.4770460688" lon="10.3960467596"><ele>1847.31</ele><time>2011-11-13T11:52:39Z</time></trkpt><trkpt lat="46.4770524390" lon="10.3960361984"><ele>1847.79</ele><time>2011-11-13T11:53:01Z</time></trkpt><trkpt lat="46.4770524390" lon="10.3960361984"><ele>1847.79</ele><time>2011-11-13T11:53:19Z</time></trkpt><trkpt lat="46.4769524429" lon="10.3960660379"><ele>1846.83</ele><time>2011-11-13T11:53:36Z</time></trkpt><trkpt lat="46.4768915065" lon="10.3960206080"><ele>1843.95</ele><time>2011-11-13T11:53:46Z</time></trkpt><trkpt lat="46.4768687915" lon="10.3959990665"><ele>1842.98</ele><time>2011-11-13T11:53:49Z</time></trkpt><trkpt lat="46.4768048376" lon="10.3959513735"><ele>1840.10</ele><time>2011-11-13T11:53:58Z</time></trkpt><trkpt lat="46.4767726511" lon="10.3959641978"><ele>1839.62</ele><time>2011-11-13T11:54:03Z</time></trkpt><trkpt lat="46.4766983874" lon="10.3959972225"><ele>1837.70</ele><time>2011-11-13T11:54:13Z</time></trkpt><trkpt lat="46.4766102936" lon="10.3960941173"><ele>1834.33</ele><time>2011-11-13T11:54:24Z</time></trkpt><trkpt lat="46.4764976408" lon="10.3961413074"><ele>1832.41</ele><time>2011-11-13T11:54:36Z</time></trkpt><trkpt lat="46.4764309209" lon="10.3961693030"><ele>1830.01</ele><time>2011-11-13T11:54:42Z</time></trkpt><trkpt lat="46.4764196891" lon="10.3961667884"><ele>1829.53</ele><time>2011-11-13T11:55:02Z</time></trkpt><trkpt lat="46.4763895981" lon="10.3962072730"><ele>1827.12</ele><time>2011-11-13T11:55:25Z</time></trkpt><trkpt lat="46.4763626084" lon="10.3962404653"><ele>1825.20</ele><time>2011-11-13T11:55:43Z</time></trkpt><trkpt lat="46.4763319306" lon="10.3962717298"><ele>1825.20</ele><time>2011-11-13T11:56:01Z</time></trkpt><trkpt lat="46.4762678929" lon="10.3963169921"><ele>1821.84</ele><time>2011-11-13T11:56:15Z</time></trkpt><trkpt lat="46.4762146678" lon="10.3964163177"><ele>1818.95</ele><time>2011-11-13T11:56:33Z</time></trkpt><trkpt lat="46.4762235526" lon="10.3964635078"><ele>1816.07</ele><time>2011-11-13T11:56:46Z</time></trkpt><trkpt lat="46.4762548171" lon="10.3966124542"><ele>1813.18</ele><time>2011-11-13T11:56:57Z</time></trkpt><trkpt lat="46.4762960561" lon="10.3967465647"><ele>1811.26</ele><time>2011-11-13T11:57:12Z</time></trkpt><trkpt lat="46.4762937929" lon="10.3967856243"><ele>1809.82</ele><time>2011-11-13T11:57:15Z</time></trkpt><trkpt lat="46.4762800466" lon="10.3968459740"><ele>1807.90</ele><time>2011-11-13T11:57:31Z</time></trkpt><trkpt lat="46.4762800466" lon="10.3968459740"><ele>1807.42</ele><time>2011-11-13T11:57:57Z</time></trkpt><trkpt lat="46.4762558229" lon="10.3968486562"><ele>1804.53</ele><time>2011-11-13T11:58:08Z</time></trkpt><trkpt lat="46.4762300905" lon="10.3969178069"><ele>1803.09</ele><time>2011-11-13T11:58:16Z</time></trkpt><trkpt lat="46.4762207866" lon="10.3970263526"><ele>1800.69</ele><time>2011-11-13T11:58:25Z</time></trkpt><trkpt lat="46.4762395620" lon="10.3970768116"><ele>1798.76</ele><time>2011-11-13T11:58:30Z</time></trkpt><trkpt lat="46.4762538113" lon="10.3971872013"><ele>1795.40</ele><time>2011-11-13T11:58:41Z</time></trkpt><trkpt lat="46.4762466028" lon="10.3972477186"><ele>1793.96</ele><time>2011-11-13T11:58:53Z</time></trkpt><trkpt lat="46.4762766100" lon="10.3973137680"><ele>1793.00</ele><time>2011-11-13T11:58:58Z</time></trkpt><trkpt lat="46.4762979839" lon="10.3973709326"><ele>1792.03</ele><time>2011-11-13T11:59:02Z</time></trkpt><trkpt lat="46.4762797952" lon="10.3974388260"><ele>1788.67</ele><time>2011-11-13T11:59:16Z</time></trkpt><trkpt lat="46.4762450103" lon="10.3974529076"><ele>1787.71</ele><time>2011-11-13T11:59:20Z</time></trkpt><trkpt lat="46.4762255643" lon="10.3974588588"><ele>1787.23</ele><time>2011-11-13T11:59:22Z</time></trkpt><trkpt lat="46.4761352073" lon="10.3974710964"><ele>1784.34</ele><time>2011-11-13T11:59:37Z</time></trkpt><trkpt lat="46.4761131629" lon="10.3974671569"><ele>1784.34</ele><time>2011-11-13T11:59:40Z</time></trkpt><trkpt lat="46.4760870952" lon="10.3974628821"><ele>1783.38</ele><time>2011-11-13T11:59:43Z</time></trkpt><trkpt lat="46.4760228060" lon="10.3974904586"><ele>1780.50</ele><time>2011-11-13T11:59:51Z</time></trkpt><trkpt lat="46.4760163520" lon="10.3974945657"><ele>1780.50</ele><time>2011-11-13T11:59:52Z</time></trkpt><trkpt lat="46.4759571757" lon="10.3975462820"><ele>1777.61</ele><time>2011-11-13T12:00:00Z</time></trkpt><trkpt lat="46.4758504741" lon="10.3975508083"><ele>1774.25</ele><time>2011-11-13T12:00:11Z</time></trkpt><trkpt lat="46.4757852629" lon="10.3975636326"><ele>1770.89</ele><time>2011-11-13T12:00:18Z</time></trkpt><trkpt lat="46.4757777192" lon="10.3975664824"><ele>1770.89</ele><time>2011-11-13T12:00:19Z</time></trkpt><trkpt lat="46.4757600334" lon="10.3975778818"><ele>1770.89</ele><time>2011-11-13T12:00:21Z</time></trkpt><trkpt lat="46.4757016953" lon="10.3975985013"><ele>1768.48</ele><time>2011-11-13T12:00:26Z</time></trkpt><trkpt lat="46.4756443631" lon="10.3975872695"><ele>1767.04</ele><time>2011-11-13T12:00:31Z</time></trkpt><trkpt lat="46.4755362365" lon="10.3975053784"><ele>1764.16</ele><time>2011-11-13T12:00:43Z</time></trkpt><trkpt lat="46.4754733723" lon="10.3975099046"><ele>1762.23</ele><time>2011-11-13T12:00:52Z</time></trkpt><trkpt lat="46.4754131064" lon="10.3974836692"><ele>1762.23</ele><time>2011-11-13T12:00:57Z</time></trkpt><trkpt lat="46.4753003698" lon="10.3974695876"><ele>1760.79</ele><time>2011-11-13T12:01:07Z</time></trkpt><trkpt lat="46.4752162155" lon="10.3975124191"><ele>1756.95</ele><time>2011-11-13T12:01:17Z</time></trkpt><trkpt lat="46.4752064925" lon="10.3975180350"><ele>1756.47</ele><time>2011-11-13T12:01:18Z</time></trkpt><trkpt lat="46.4751318097" lon="10.3975202981"><ele>1753.10</ele><time>2011-11-13T12:01:28Z</time></trkpt><trkpt lat="46.4750161394" lon="10.3975208849"><ele>1749.74</ele><time>2011-11-13T12:01:40Z</time></trkpt><trkpt lat="46.4749791753" lon="10.3975197952"><ele>1749.26</ele><time>2011-11-13T12:01:42Z</time></trkpt><trkpt lat="46.4748258702" lon="10.3975097369"><ele>1746.85</ele><time>2011-11-13T12:01:58Z</time></trkpt><trkpt lat="46.4747951925" lon="10.3975493833"><ele>1743.49</ele><time>2011-11-13T12:02:13Z</time></trkpt><trkpt lat="46.4747328311" lon="10.3976042010"><ele>1743.01</ele><time>2011-11-13T12:02:31Z</time></trkpt><trkpt lat="46.4746705536" lon="10.3976894449"><ele>1740.60</ele><time>2011-11-13T12:02:50Z</time></trkpt><trkpt lat="46.4746562205" lon="10.3977549076"><ele>1738.20</ele><time>2011-11-13T12:03:08Z</time></trkpt><trkpt lat="46.4746309910" lon="10.3978083003"><ele>1734.84</ele><time>2011-11-13T12:03:19Z</time></trkpt><trkpt lat="46.4745539613" lon="10.3978662193"><ele>1732.91</ele><time>2011-11-13T12:03:35Z</time></trkpt><trkpt lat="46.4743751753" lon="10.3979476914"><ele>1732.43</ele><time>2011-11-13T12:03:47Z</time></trkpt><trkpt lat="46.4742378797" lon="10.3979833145"><ele>1729.55</ele><time>2011-11-13T12:04:01Z</time></trkpt><trkpt lat="46.4742224570" lon="10.3979253117"><ele>1728.11</ele><time>2011-11-13T12:04:07Z</time></trkpt><trkpt lat="46.4741899353" lon="10.3979460988"><ele>1724.26</ele><time>2011-11-13T12:04:20Z</time></trkpt><trkpt lat="46.4741367102" lon="10.3979515471"><ele>1721.86</ele><time>2011-11-13T12:04:34Z</time></trkpt><trkpt lat="46.4740833174" lon="10.3979711607"><ele>1718.49</ele><time>2011-11-13T12:04:43Z</time></trkpt><trkpt lat="46.4740367979" lon="10.3980339412"><ele>1717.53</ele><time>2011-11-13T12:04:47Z</time></trkpt><trkpt lat="46.4739342872" lon="10.3980916925"><ele>1713.69</ele><time>2011-11-13T12:05:01Z</time></trkpt><trkpt lat="46.4739323594" lon="10.3981446661"><ele>1709.84</ele><time>2011-11-13T12:05:14Z</time></trkpt><trkpt lat="46.4739385620" lon="10.3982418962"><ele>1707.92</ele><time>2011-11-13T12:05:34Z</time></trkpt><trkpt lat="46.4739153441" lon="10.3983536270"><ele>1704.55</ele><time>2011-11-13T12:05:48Z</time></trkpt><trkpt lat="46.4739424177" lon="10.3983997274"><ele>1701.19</ele><time>2011-11-13T12:06:00Z</time></trkpt><trkpt lat="46.4739692397" lon="10.3985190019"><ele>1697.83</ele><time>2011-11-13T12:06:13Z</time></trkpt><trkpt lat="46.4739450999" lon="10.3986642603"><ele>1694.46</ele><time>2011-11-13T12:06:25Z</time></trkpt><trkpt lat="46.4739265759" lon="10.3987146355"><ele>1693.02</ele><time>2011-11-13T12:06:31Z</time></trkpt><trkpt lat="46.4738782123" lon="10.3987604845"><ele>1691.10</ele><time>2011-11-13T12:06:37Z</time></trkpt><trkpt lat="46.4737882745" lon="10.3988595586"><ele>1687.73</ele><time>2011-11-13T12:06:48Z</time></trkpt><trkpt lat="46.4737723488" lon="10.3988702875"><ele>1685.81</ele><time>2011-11-13T12:06:52Z</time></trkpt><trkpt lat="46.4737038687" lon="10.3989505023"><ele>1682.93</ele><time>2011-11-13T12:07:07Z</time></trkpt><trkpt lat="46.4736763760" lon="10.3990012128"><ele>1680.04</ele><time>2011-11-13T12:07:17Z</time></trkpt><trkpt lat="46.4735821635" lon="10.3990932461"><ele>1676.68</ele><time>2011-11-13T12:07:35Z</time></trkpt><trkpt lat="46.4735455345" lon="10.3991338983"><ele>1676.20</ele><time>2011-11-13T12:07:50Z</time></trkpt><trkpt lat="46.4735204726" lon="10.3991867881"><ele>1674.27</ele><time>2011-11-13T12:07:53Z</time></trkpt><trkpt lat="46.4734664094" lon="10.3992443718"><ele>1672.83</ele><time>2011-11-13T12:07:58Z</time></trkpt><trkpt lat="46.4734158665" lon="10.3992965072"><ele>1669.47</ele><time>2011-11-13T12:08:08Z</time></trkpt><trkpt lat="46.4733887929" lon="10.3993430268"><ele>1666.58</ele><time>2011-11-13T12:08:22Z</time></trkpt><trkpt lat="46.4733500686" lon="10.3994203079"><ele>1663.70</ele><time>2011-11-13T12:08:35Z</time></trkpt><trkpt lat="46.4733176306" lon="10.3994496446"><ele>1660.81</ele><time>2011-11-13T12:08:47Z</time></trkpt><trkpt lat="46.4732734580" lon="10.3995791450"><ele>1657.45</ele><time>2011-11-13T12:09:02Z</time></trkpt><trkpt lat="46.4731111843" lon="10.3997380659"><ele>1655.05</ele><time>2011-11-13T12:09:20Z</time></trkpt><trkpt lat="46.4731139503" lon="10.3997144289"><ele>1653.60</ele><time>2011-11-13T12:09:36Z</time></trkpt><trkpt lat="46.4730472304" lon="10.3997734375"><ele>1651.68</ele><time>2011-11-13T12:09:55Z</time></trkpt><trkpt lat="46.4729968552" lon="10.3998116590"><ele>1650.24</ele><time>2011-11-13T12:10:01Z</time></trkpt><trkpt lat="46.4729174785" lon="10.3997978289"><ele>1647.84</ele><time>2011-11-13T12:10:11Z</time></trkpt><trkpt lat="46.4728588890" lon="10.3998370562"><ele>1644.47</ele><time>2011-11-13T12:10:17Z</time></trkpt><trkpt lat="46.4728434663" lon="10.3998363856"><ele>1647.36</ele><time>2011-11-13T12:10:18Z</time></trkpt><trkpt lat="46.4728274569" lon="10.3998434264"><ele>1645.91</ele><time>2011-11-13T12:10:19Z</time></trkpt><trkpt lat="46.4726832882" lon="10.3998788819"><ele>1643.99</ele><time>2011-11-13T12:10:32Z</time></trkpt><trkpt lat="46.4725325815" lon="10.3999854159"><ele>1641.11</ele><time>2011-11-13T12:10:49Z</time></trkpt><trkpt lat="46.4725046698" lon="10.3999714181"><ele>1641.59</ele><time>2011-11-13T12:10:51Z</time></trkpt><trkpt lat="46.4722953737" lon="10.3999812249"><ele>1639.19</ele><time>2011-11-13T12:11:12Z</time></trkpt><trkpt lat="46.4721315075" lon="10.4000379704"><ele>1635.82</ele><time>2011-11-13T12:11:27Z</time></trkpt><trkpt lat="46.4720206987" lon="10.4001129884"><ele>1632.46</ele><time>2011-11-13T12:11:45Z</time></trkpt><trkpt lat="46.4720172621" lon="10.4001198616"><ele>1631.49</ele><time>2011-11-13T12:11:46Z</time></trkpt><trkpt lat="46.4718946349" lon="10.4001841508"><ele>1628.13</ele><time>2011-11-13T12:11:59Z</time></trkpt><trkpt lat="46.4718355425" lon="10.4002637789"><ele>1625.25</ele><time>2011-11-13T12:12:10Z</time></trkpt><trkpt lat="46.4718310162" lon="10.4002704006"><ele>1624.77</ele><time>2011-11-13T12:12:11Z</time></trkpt><trkpt lat="46.4717950579" lon="10.4003325943"><ele>1623.32</ele><time>2011-11-13T12:12:18Z</time></trkpt><trkpt lat="46.4717060421" lon="10.4004197661"><ele>1619.96</ele><time>2011-11-13T12:12:30Z</time></trkpt><trkpt lat="46.4716118295" lon="10.4005444888"><ele>1616.11</ele><time>2011-11-13T12:12:43Z</time></trkpt><trkpt lat="46.4715037029" lon="10.4006709717"><ele>1612.75</ele><time>2011-11-13T12:13:00Z</time></trkpt><trkpt lat="46.4714471251" lon="10.4006941058"><ele>1611.79</ele><time>2011-11-13T12:13:06Z</time></trkpt><trkpt lat="46.4712886233" lon="10.4007457383"><ele>1608.42</ele><time>2011-11-13T12:13:19Z</time></trkpt><trkpt lat="46.4711311273" lon="10.4009031504"><ele>1606.02</ele><time>2011-11-13T12:13:37Z</time></trkpt><trkpt lat="46.4709546883" lon="10.4009267036"><ele>1602.66</ele><time>2011-11-13T12:13:52Z</time></trkpt><trkpt lat="46.4708199911" lon="10.4009043239"><ele>1600.73</ele><time>2011-11-13T12:14:03Z</time></trkpt><trkpt lat="46.4707317296" lon="10.4008966126"><ele>1597.37</ele><time>2011-11-13T12:14:17Z</time></trkpt><trkpt lat="46.4706208371" lon="10.4009502567"><ele>1595.93</ele><time>2011-11-13T12:14:29Z</time></trkpt><trkpt lat="46.4704533666" lon="10.4011185654"><ele>1590.64</ele><time>2011-11-13T12:14:48Z</time></trkpt><trkpt lat="46.4703775104" lon="10.4012408573"><ele>1587.75</ele><time>2011-11-13T12:15:01Z</time></trkpt><trkpt lat="46.4702475909" lon="10.4013188090"><ele>1584.39</ele><time>2011-11-13T12:15:15Z</time></trkpt><trkpt lat="46.4701991435" lon="10.4014182184"><ele>1582.47</ele><time>2011-11-13T12:15:22Z</time></trkpt><trkpt lat="46.4701482654" lon="10.4015191365"><ele>1579.58</ele><time>2011-11-13T12:15:30Z</time></trkpt><trkpt lat="46.4700566512" lon="10.4016279336"><ele>1576.22</ele><time>2011-11-13T12:15:41Z</time></trkpt><trkpt lat="46.4699804597" lon="10.4017206375"><ele>1573.33</ele><time>2011-11-13T12:15:52Z</time></trkpt><trkpt lat="46.4698994067" lon="10.4018201306"><ele>1570.45</ele><time>2011-11-13T12:16:05Z</time></trkpt><trkpt lat="46.4697828144" lon="10.4019423388"><ele>1567.09</ele><time>2011-11-13T12:16:19Z</time></trkpt><trkpt lat="46.4696000889" lon="10.4019916244"><ele>1563.72</ele><time>2011-11-13T12:16:30Z</time></trkpt><trkpt lat="46.4695911203" lon="10.4019925464"><ele>1563.72</ele><time>2011-11-13T12:16:31Z</time></trkpt><trkpt lat="46.4695297647" lon="10.4019916244"><ele>1561.80</ele><time>2011-11-13T12:16:36Z</time></trkpt><trkpt lat="46.4694259129" lon="10.4020473640"><ele>1558.43</ele><time>2011-11-13T12:16:51Z</time></trkpt><trkpt lat="46.4692484681" lon="10.4020082206"><ele>1555.07</ele><time>2011-11-13T12:17:08Z</time></trkpt><trkpt lat="46.4692316204" lon="10.4019868467"><ele>1554.59</ele><time>2011-11-13T12:17:10Z</time></trkpt><trkpt lat="46.4691730309" lon="10.4018772114"><ele>1552.67</ele><time>2011-11-13T12:17:20Z</time></trkpt><trkpt lat="46.4691560157" lon="10.4016529117"><ele>1549.78</ele><time>2011-11-13T12:17:34Z</time></trkpt><trkpt lat="46.4691472985" lon="10.4016001895"><ele>1548.82</ele><time>2011-11-13T12:17:38Z</time></trkpt><trkpt lat="46.4691557642" lon="10.4014385026"><ele>1546.90</ele><time>2011-11-13T12:17:50Z</time></trkpt><trkpt lat="46.4691486396" lon="10.4011603910"><ele>1544.01</ele><time>2011-11-13T12:18:09Z</time></trkpt><trkpt lat="46.4691516571" lon="10.4010687768"><ele>1543.05</ele><time>2011-11-13T12:18:16Z</time></trkpt><trkpt lat="46.4691464603" lon="10.4010336567"><ele>1542.57</ele><time>2011-11-13T12:18:36Z</time></trkpt><trkpt lat="46.4691464603" lon="10.4010334052"><ele>1543.53</ele><time>2011-11-13T12:19:06Z</time></trkpt><trkpt lat="46.4691464603" lon="10.4010334052"><ele>1541.61</ele><time>2011-11-13T12:19:33Z</time></trkpt><trkpt lat="46.4691441972" lon="10.4009879753"><ele>1542.09</ele><time>2011-11-13T12:19:43Z</time></trkpt><trkpt lat="46.4691394195" lon="10.4009582195"><ele>1541.13</ele><time>2011-11-13T12:19:45Z</time></trkpt><trkpt lat="46.4690792374" lon="10.4007483367"><ele>1538.25</ele><time>2011-11-13T12:20:00Z</time></trkpt><trkpt lat="46.4690186363" lon="10.4007137194"><ele>1537.29</ele><time>2011-11-13T12:20:12Z</time></trkpt><trkpt lat="46.4690186363" lon="10.4007137194"><ele>1538.73</ele><time>2011-11-13T12:20:35Z</time></trkpt><trkpt lat="46.4690221567" lon="10.4006922618"><ele>1537.29</ele><time>2011-11-13T12:20:55Z</time></trkpt><trkpt lat="46.4689892996" lon="10.4006267991"><ele>1535.84</ele><time>2011-11-13T12:21:04Z</time></trkpt><trkpt lat="46.4690177143" lon="10.4004395474"><ele>1533.44</ele><time>2011-11-13T12:21:18Z</time></trkpt><trkpt lat="46.4690526668" lon="10.4003531300"><ele>1532.00</ele><time>2011-11-13T12:21:26Z</time></trkpt><trkpt lat="46.4691041317" lon="10.4000628646"><ele>1529.11</ele><time>2011-11-13T12:21:45Z</time></trkpt><trkpt lat="46.4690488111" lon="10.3999614436"><ele>1525.75</ele><time>2011-11-13T12:21:57Z</time></trkpt><trkpt lat="46.4690048900" lon="10.3997137584"><ele>1522.39</ele><time>2011-11-13T12:22:13Z</time></trkpt><trkpt lat="46.4690021239" lon="10.3996726871"><ele>1521.42</ele><time>2011-11-13T12:22:15Z</time></trkpt><trkpt lat="46.4689939097" lon="10.3994886205"><ele>1518.54</ele><time>2011-11-13T12:22:26Z</time></trkpt><trkpt lat="46.4689976815" lon="10.3992984351"><ele>1515.66</ele><time>2011-11-13T12:22:38Z</time></trkpt><trkpt lat="46.4690058958" lon="10.3992002830"><ele>1513.73</ele><time>2011-11-13T12:22:45Z</time></trkpt><trkpt lat="46.4689815883" lon="10.3991520032"><ele>1511.81</ele><time>2011-11-13T12:22:53Z</time></trkpt><trkpt lat="46.4689517487" lon="10.3990025539"><ele>1508.93</ele><time>2011-11-13T12:23:06Z</time></trkpt><trkpt lat="46.4689253457" lon="10.3987662680"><ele>1505.56</ele><time>2011-11-13T12:23:20Z</time></trkpt><trkpt lat="46.4689170476" lon="10.3987373505"><ele>1504.60</ele><time>2011-11-13T12:23:22Z</time></trkpt><trkpt lat="46.4689048100" lon="10.3985895775"><ele>1502.68</ele><time>2011-11-13T12:23:32Z</time></trkpt><trkpt lat="46.4688997809" lon="10.3984291479"><ele>1499.31</ele><time>2011-11-13T12:23:43Z</time></trkpt><trkpt lat="46.4688722882" lon="10.3982443269"><ele>1496.91</ele><time>2011-11-13T12:23:56Z</time></trkpt><trkpt lat="46.4688831847" lon="10.3981271479"><ele>1496.91</ele><time>2011-11-13T12:24:11Z</time></trkpt><trkpt lat="46.4688831847" lon="10.3981271479"><ele>1496.91</ele><time>2011-11-13T12:24:41Z</time></trkpt><trkpt lat="46.4688738808" lon="10.3981272317"><ele>1497.39</ele><time>2011-11-13T12:25:03Z</time></trkpt><trkpt lat="46.4688738808" lon="10.3981272317"><ele>1497.87</ele><time>2011-11-13T12:25:35Z</time></trkpt><trkpt lat="46.4688905608" lon="10.3981069475"><ele>1496.91</ele><time>2011-11-13T12:25:50Z</time></trkpt><trkpt lat="46.4688905608" lon="10.3981069475"><ele>1497.87</ele><time>2011-11-13T12:26:01Z</time></trkpt><trkpt lat="46.4688933268" lon="10.3981006611"><ele>1496.43</ele><time>2011-11-13T12:26:30Z</time></trkpt><trkpt lat="46.4689265192" lon="10.3980437480"><ele>1497.39</ele><time>2011-11-13T12:26:45Z</time></trkpt><trkpt lat="46.4690161217" lon="10.3978977352"><ele>1500.27</ele><time>2011-11-13T12:27:03Z</time></trkpt><trkpt lat="46.4691326302" lon="10.3978066240"><ele>1503.16</ele><time>2011-11-13T12:27:20Z</time></trkpt><trkpt lat="46.4692209754" lon="10.3977539018"><ele>1506.04</ele><time>2011-11-13T12:27:33Z</time></trkpt><trkpt lat="46.4692885336" lon="10.3976789676"><ele>1508.45</ele><time>2011-11-13T12:27:49Z</time></trkpt><trkpt lat="46.4693685807" lon="10.3976272512"><ele>1511.81</ele><time>2011-11-13T12:28:03Z</time></trkpt><trkpt lat="46.4693974983" lon="10.3975688294"><ele>1511.33</ele><time>2011-11-13T12:28:23Z</time></trkpt><trkpt lat="46.4694933034" lon="10.3974822443"><ele>1514.21</ele><time>2011-11-13T12:28:40Z</time></trkpt><trkpt lat="46.4695637953" lon="10.3974111658"><ele>1516.14</ele><time>2011-11-13T12:28:55Z</time></trkpt><trkpt lat="46.4696544036" lon="10.3973461222"><ele>1518.54</ele><time>2011-11-13T12:29:08Z</time></trkpt><trkpt lat="46.4697607700" lon="10.3972190525"><ele>1520.46</ele><time>2011-11-13T12:29:23Z</time></trkpt><trkpt lat="46.4697958902" lon="10.3971277736"><ele>1523.35</ele><time>2011-11-13T12:29:39Z</time></trkpt><trkpt lat="46.4698432479" lon="10.3970693517"><ele>1524.31</ele><time>2011-11-13T12:29:46Z</time></trkpt><trkpt lat="46.4699495304" lon="10.3969229199"><ele>1526.23</ele><time>2011-11-13T12:30:02Z</time></trkpt><trkpt lat="46.4700131491" lon="10.3968385980"><ele>1529.59</ele><time>2011-11-13T12:30:14Z</time></trkpt><trkpt lat="46.4701890014" lon="10.3966528550"><ele>1532.96</ele><time>2011-11-13T12:30:34Z</time></trkpt><trkpt lat="46.4702603314" lon="10.3965117875"><ele>1536.32</ele><time>2011-11-13T12:30:53Z</time></trkpt><trkpt lat="46.4703295659" lon="10.3964443132"><ele>1538.73</ele><time>2011-11-13T12:31:02Z</time></trkpt><trkpt lat="46.4704143908" lon="10.3963411320"><ele>1540.65</ele><time>2011-11-13T12:31:19Z</time></trkpt><trkpt lat="46.4705042448" lon="10.3961926885"><ele>1544.01</ele><time>2011-11-13T12:31:35Z</time></trkpt><trkpt lat="46.4705331624" lon="10.3961401340"><ele>1545.46</ele><time>2011-11-13T12:31:43Z</time></trkpt><trkpt lat="46.4706183225" lon="10.3960144054"><ele>1548.82</ele><time>2011-11-13T12:31:58Z</time></trkpt><trkpt lat="46.4707245212" lon="10.3959033452"><ele>1550.74</ele><time>2011-11-13T12:32:15Z</time></trkpt><trkpt lat="46.4707826078" lon="10.3958422411"><ele>1552.19</ele><time>2011-11-13T12:32:28Z</time></trkpt><trkpt lat="46.4708893094" lon="10.3957428318"><ele>1556.99</ele><time>2011-11-13T12:32:46Z</time></trkpt><trkpt lat="46.4709714521" lon="10.3956963960"><ele>1557.95</ele><time>2011-11-13T12:32:57Z</time></trkpt><trkpt lat="46.4710538462" lon="10.3956075478"><ele>1560.84</ele><time>2011-11-13T12:33:10Z</time></trkpt><trkpt lat="46.4711439516" lon="10.3954881057"><ele>1562.28</ele><time>2011-11-13T12:33:25Z</time></trkpt><trkpt lat="46.4712494798" lon="10.3953958210"><ele>1564.20</ele><time>2011-11-13T12:33:40Z</time></trkpt><trkpt lat="46.4713242464" lon="10.3953293525"><ele>1568.05</ele><time>2011-11-13T12:33:54Z</time></trkpt><trkpt lat="46.4714260865" lon="10.3952306975"><ele>1569.01</ele><time>2011-11-13T12:34:09Z</time></trkpt><trkpt lat="46.4715459477" lon="10.3952250816"><ele>1571.89</ele><time>2011-11-13T12:34:24Z</time></trkpt><trkpt lat="46.4715965744" lon="10.3951980919"><ele>1573.82</ele><time>2011-11-13T12:34:40Z</time></trkpt><trkpt lat="46.4716160204" lon="10.3951736167"><ele>1574.30</ele><time>2011-11-13T12:34:54Z</time></trkpt><trkpt lat="46.4716495480" lon="10.3951562662"><ele>1573.82</ele><time>2011-11-13T12:34:59Z</time></trkpt><trkpt lat="46.4716228098" lon="10.3951660730"><ele>1573.82</ele><time>2011-11-13T12:35:14Z</time></trkpt><trkpt lat="46.4715814032" lon="10.3948757239"><ele>1572.85</ele><time>2011-11-13T12:35:31Z</time></trkpt><trkpt lat="46.4714673255" lon="10.3945968580"><ele>1571.89</ele><time>2011-11-13T12:35:48Z</time></trkpt><trkpt lat="46.4714883640" lon="10.3944232687"><ele>1572.37</ele><time>2011-11-13T12:35:54Z</time></trkpt><trkpt lat="46.4715133421" lon="10.3940104600"><ele>1569.97</ele><time>2011-11-13T12:36:15Z</time></trkpt><trkpt lat="46.4716102369" lon="10.3937729169"><ele>1569.97</ele><time>2011-11-13T12:36:32Z</time></trkpt><trkpt lat="46.4715797268" lon="10.3935373854"><ele>1570.45</ele><time>2011-11-13T12:36:48Z</time></trkpt><trkpt lat="46.4714211412" lon="10.3932681587"><ele>1570.45</ele><time>2011-11-13T12:37:08Z</time></trkpt><trkpt lat="46.4713858534" lon="10.3931960743"><ele>1570.45</ele><time>2011-11-13T12:37:13Z</time></trkpt><trkpt lat="46.4713161997" lon="10.3930500615"><ele>1571.41</ele><time>2011-11-13T12:37:25Z</time></trkpt><trkpt lat="46.4712539222" lon="10.3927610535"><ele>1573.33</ele><time>2011-11-13T12:37:44Z</time></trkpt><trkpt lat="46.4712597057" lon="10.3927443735"><ele>1573.33</ele><time>2011-11-13T12:37:45Z</time></trkpt><trkpt lat="46.4712626394" lon="10.3925730474"><ele>1571.89</ele><time>2011-11-13T12:37:58Z</time></trkpt><trkpt lat="46.4712480549" lon="10.3925254382"><ele>1571.41</ele><time>2011-11-13T12:38:02Z</time></trkpt><trkpt lat="46.4711681753" lon="10.3921880666"><ele>1570.93</ele><time>2011-11-13T12:38:22Z</time></trkpt><trkpt lat="46.4711829275" lon="10.3918244597"><ele>1570.45</ele><time>2011-11-13T12:38:41Z</time></trkpt><trkpt lat="46.4711665828" lon="10.3914620262"><ele>1570.45</ele><time>2011-11-13T12:39:01Z</time></trkpt><trkpt lat="46.4712295309" lon="10.3911057953"><ele>1568.05</ele><time>2011-11-13T12:39:22Z</time></trkpt><trkpt lat="46.4712255914" lon="10.3910890315"><ele>1568.05</ele><time>2011-11-13T12:39:23Z</time></trkpt><trkpt lat="46.4712581970" lon="10.3907531686"><ele>1567.57</ele><time>2011-11-13T12:39:43Z</time></trkpt><trkpt lat="46.4713480510" lon="10.3903869633"><ele>1565.64</ele><time>2011-11-13T12:40:04Z</time></trkpt><trkpt lat="46.4714018628" lon="10.3901372664"><ele>1565.16</ele><time>2011-11-13T12:40:18Z</time></trkpt><trkpt lat="46.4714928064" lon="10.3898866475"><ele>1563.24</ele><time>2011-11-13T12:40:37Z</time></trkpt><trkpt lat="46.4715205505" lon="10.3898211848"><ele>1561.32</ele><time>2011-11-13T12:40:43Z</time></trkpt><trkpt lat="46.4715565089" lon="10.3896745015"><ele>1560.36</ele><time>2011-11-13T12:40:51Z</time></trkpt><trkpt lat="46.4715805650" lon="10.3895085398"><ele>1559.40</ele><time>2011-11-13T12:40:58Z</time></trkpt><trkpt lat="46.4715789724" lon="10.3891858365"><ele>1558.43</ele><time>2011-11-13T12:41:16Z</time></trkpt><trkpt lat="46.4715610351" lon="10.3890544083"><ele>1556.99</ele><time>2011-11-13T12:41:25Z</time></trkpt><trkpt lat="46.4715643879" lon="10.3886521608"><ele>1555.07</ele><time>2011-11-13T12:41:46Z</time></trkpt><trkpt lat="46.4716036152" lon="10.3883192316"><ele>1553.15</ele><time>2011-11-13T12:42:05Z</time></trkpt><trkpt lat="46.4716057945" lon="10.3882846981"><ele>1553.15</ele><time>2011-11-13T12:42:07Z</time></trkpt><trkpt lat="46.4715918805" lon="10.3878930118"><ele>1551.22</ele><time>2011-11-13T12:42:29Z</time></trkpt><trkpt lat="46.4716720954" lon="10.3877340909"><ele>1548.82</ele><time>2011-11-13T12:42:40Z</time></trkpt><trkpt lat="46.4717775397" lon="10.3875208553"><ele>1545.46</ele><time>2011-11-13T12:42:58Z</time></trkpt><trkpt lat="46.4719404001" lon="10.3872465156"><ele>1543.05</ele><time>2011-11-13T12:43:17Z</time></trkpt><trkpt lat="46.4720633626" lon="10.3870155942"><ele>1540.17</ele><time>2011-11-13T12:43:34Z</time></trkpt><trkpt lat="46.4721677173" lon="10.3868104052"><ele>1537.29</ele><time>2011-11-13T12:43:51Z</time></trkpt><trkpt lat="46.4722455014" lon="10.3866253328"><ele>1535.84</ele><time>2011-11-13T12:44:04Z</time></trkpt><trkpt lat="46.4722881652" lon="10.3865682520"><ele>1534.40</ele><time>2011-11-13T12:44:08Z</time></trkpt><trkpt lat="46.4723576512" lon="10.3864467144"><ele>1533.44</ele><time>2011-11-13T12:44:17Z</time></trkpt><trkpt lat="46.4724690467" lon="10.3862333111"><ele>1531.04</ele><time>2011-11-13T12:44:32Z</time></trkpt><trkpt lat="46.4724873193" lon="10.3860013001"><ele>1530.08</ele><time>2011-11-13T12:44:51Z</time></trkpt><trkpt lat="46.4724865649" lon="10.3859098535"><ele>1530.56</ele><time>2011-11-13T12:45:08Z</time></trkpt><trkpt lat="46.4724820387" lon="10.3856945224"><ele>1529.59</ele><time>2011-11-13T12:45:25Z</time></trkpt><trkpt lat="46.4725815319" lon="10.3854874056"><ele>1528.15</ele><time>2011-11-13T12:45:40Z</time></trkpt><trkpt lat="46.4726807736" lon="10.3852859885"><ele>1525.27</ele><time>2011-11-13T12:45:59Z</time></trkpt><trkpt lat="46.4728289656" lon="10.3850387223"><ele>1525.27</ele><time>2011-11-13T12:46:17Z</time></trkpt><trkpt lat="46.4728315640" lon="10.3850143310"><ele>1525.27</ele><time>2011-11-13T12:46:19Z</time></trkpt><trkpt lat="46.4728365932" lon="10.3849876765"><ele>1524.31</ele><time>2011-11-13T12:46:21Z</time></trkpt><trkpt lat="46.4729288779" lon="10.3846476227"><ele>1522.87</ele><time>2011-11-13T12:46:40Z</time></trkpt><trkpt lat="46.4729709551" lon="10.3843566030"><ele>1519.98</ele><time>2011-11-13T12:46:58Z</time></trkpt><trkpt lat="46.4729816001" lon="10.3843365703"><ele>1520.94</ele><time>2011-11-13T12:47:00Z</time></trkpt><trkpt lat="46.4729404449" lon="10.3840867057"><ele>1519.98</ele><time>2011-11-13T12:47:16Z</time></trkpt><trkpt lat="46.4728059154" lon="10.3837311454"><ele>1519.50</ele><time>2011-11-13T12:47:36Z</time></trkpt><trkpt lat="46.4728317317" lon="10.3835841268"><ele>1519.02</ele><time>2011-11-13T12:47:44Z</time></trkpt><trkpt lat="46.4730071649" lon="10.3832581546"><ele>1516.14</ele><time>2011-11-13T12:48:06Z</time></trkpt><trkpt lat="46.4730906487" lon="10.3830064461"><ele>1514.21</ele><time>2011-11-13T12:48:26Z</time></trkpt><trkpt lat="46.4730972704" lon="10.3829795402"><ele>1514.21</ele><time>2011-11-13T12:48:27Z</time></trkpt><trkpt lat="46.4731877111" lon="10.3826005105"><ele>1513.73</ele><time>2011-11-13T12:48:49Z</time></trkpt><trkpt lat="46.4732995257" lon="10.3822255041"><ele>1511.33</ele><time>2011-11-13T12:49:07Z</time></trkpt><trkpt lat="46.4733096678" lon="10.3821023740"><ele>1509.89</ele><time>2011-11-13T12:49:17Z</time></trkpt><trkpt lat="46.4733604621" lon="10.3817793354"><ele>1509.41</ele><time>2011-11-13T12:49:38Z</time></trkpt><trkpt lat="46.4734213147" lon="10.3815267049"><ele>1508.45</ele><time>2011-11-13T12:49:50Z</time></trkpt><trkpt lat="46.4734714385" lon="10.3811619245"><ele>1507.97</ele><time>2011-11-13T12:50:10Z</time></trkpt><trkpt lat="46.4735053852" lon="10.3807953000"><ele>1506.52</ele><time>2011-11-13T12:50:30Z</time></trkpt><trkpt lat="46.4735042118" lon="10.3807507083"><ele>1507.00</ele><time>2011-11-13T12:50:35Z</time></trkpt><trkpt lat="46.4736839198" lon="10.3802849259"><ele>1505.56</ele><time>2011-11-13T12:50:56Z</time></trkpt><trkpt lat="46.4736941457" lon="10.3802114166"><ele>1505.08</ele><time>2011-11-13T12:51:01Z</time></trkpt><trkpt lat="46.4736823272" lon="10.3799611330"><ele>1502.68</ele><time>2011-11-13T12:51:17Z</time></trkpt><trkpt lat="46.4736919664" lon="10.3799390048"><ele>1502.68</ele><time>2011-11-13T12:51:18Z</time></trkpt><trkpt lat="46.4738293458" lon="10.3797088377"><ele>1499.31</ele><time>2011-11-13T12:51:34Z</time></trkpt><trkpt lat="46.4739608578" lon="10.3795580473"><ele>1497.39</ele><time>2011-11-13T12:51:52Z</time></trkpt><trkpt lat="46.4741082955" lon="10.3793048300"><ele>1493.55</ele><time>2011-11-13T12:52:11Z</time></trkpt><trkpt lat="46.4742225409" lon="10.3790653590"><ele>1491.62</ele><time>2011-11-13T12:52:28Z</time></trkpt><trkpt lat="46.4743705653" lon="10.3788392153"><ele>1490.18</ele><time>2011-11-13T12:52:44Z</time></trkpt><trkpt lat="46.4744732436" lon="10.3784599341"><ele>1487.30</ele><time>2011-11-13T12:53:06Z</time></trkpt><trkpt lat="46.4746307395" lon="10.3780669067"><ele>1486.34</ele><time>2011-11-13T12:53:28Z</time></trkpt><trkpt lat="46.4747340046" lon="10.3777814191"><ele>1484.41</ele><time>2011-11-13T12:53:46Z</time></trkpt><trkpt lat="46.4747449011" lon="10.3777485620"><ele>1484.41</ele><time>2011-11-13T12:53:48Z</time></trkpt><trkpt lat="46.4748209249" lon="10.3776720352"><ele>1482.97</ele><time>2011-11-13T12:54:02Z</time></trkpt><trkpt lat="46.4748209249" lon="10.3776720352"><ele>1483.45</ele><time>2011-11-13T12:54:29Z</time></trkpt><trkpt lat="46.4748205896" lon="10.3776721191"><ele>1482.97</ele><time>2011-11-13T12:55:02Z</time></trkpt><trkpt lat="46.4748272952" lon="10.3776687663"><ele>1482.49</ele><time>2011-11-13T12:55:23Z</time></trkpt><trkpt lat="46.4749069232" lon="10.3775485698"><ele>1480.57</ele><time>2011-11-13T12:55:38Z</time></trkpt><trkpt lat="46.4750634972" lon="10.3773395251"><ele>1477.68</ele><time>2011-11-13T12:55:57Z</time></trkpt><trkpt lat="46.4750825241" lon="10.3772837855"><ele>1477.20</ele><time>2011-11-13T12:55:59Z</time></trkpt><trkpt lat="46.4752391819" lon="10.3769901674"><ele>1474.32</ele><time>2011-11-13T12:56:17Z</time></trkpt><trkpt lat="46.4753288683" lon="10.3768048435"><ele>1472.88</ele><time>2011-11-13T12:56:30Z</time></trkpt><trkpt lat="46.4753870387" lon="10.3765636962"><ele>1471.44</ele><time>2011-11-13T12:56:50Z</time></trkpt><trkpt lat="46.4754163753" lon="10.3764952160"><ele>1471.44</ele><time>2011-11-13T12:56:53Z</time></trkpt><trkpt lat="46.4754829276" lon="10.3761737701"><ele>1467.11</ele><time>2011-11-13T12:57:10Z</time></trkpt><trkpt lat="46.4755958319" lon="10.3760182858"><ele>1463.74</ele><time>2011-11-13T12:57:27Z</time></trkpt><trkpt lat="46.4757336304" lon="10.3758574370"><ele>1461.34</ele><time>2011-11-13T12:57:44Z</time></trkpt><trkpt lat="46.4757442754" lon="10.3758195508"><ele>1460.38</ele><time>2011-11-13T12:57:46Z</time></trkpt><trkpt lat="46.4758256637" lon="10.3756341431"><ele>1458.46</ele><time>2011-11-13T12:58:02Z</time></trkpt><trkpt lat="46.4758684952" lon="10.3756250907"><ele>1457.50</ele><time>2011-11-13T12:58:06Z</time></trkpt><trkpt lat="46.4759487100" lon="10.3755547665"><ele>1455.09</ele><time>2011-11-13T12:58:13Z</time></trkpt><trkpt lat="46.4760996681" lon="10.3754311334"><ele>1451.73</ele><time>2011-11-13T12:58:29Z</time></trkpt><trkpt lat="46.4762434177" lon="10.3752674349"><ele>1448.36</ele><time>2011-11-13T12:58:45Z</time></trkpt><trkpt lat="46.4763206150" lon="10.3750879783"><ele>1445.48</ele><time>2011-11-13T12:58:59Z</time></trkpt><trkpt lat="46.4764372073" lon="10.3749552090"><ele>1442.11</ele><time>2011-11-13T12:59:16Z</time></trkpt><trkpt lat="46.4764496963" lon="10.3749367688"><ele>1442.11</ele><time>2011-11-13T12:59:17Z</time></trkpt><trkpt lat="46.4765627682" lon="10.3747102898"><ele>1439.23</ele><time>2011-11-13T12:59:34Z</time></trkpt><trkpt lat="46.4766631834" lon="10.3745444119"><ele>1436.83</ele><time>2011-11-13T12:59:52Z</time></trkpt><trkpt lat="46.4766670391" lon="10.3745452501"><ele>1435.39</ele><time>2011-11-13T13:00:09Z</time></trkpt><trkpt lat="46.4765391313" lon="10.3746092878"><ele>1432.98</ele><time>2011-11-13T13:00:26Z</time></trkpt><trkpt lat="46.4765265584" lon="10.3746123891"><ele>1432.98</ele><time>2011-11-13T13:00:27Z</time></trkpt><trkpt lat="46.4764301665" lon="10.3746133111"><ele>1430.10</ele><time>2011-11-13T13:00:35Z</time></trkpt><trkpt lat="46.4763792884" lon="10.3743767738"><ele>1426.25</ele><time>2011-11-13T13:00:48Z</time></trkpt><trkpt lat="46.4763718285" lon="10.3743525501"><ele>1425.77</ele><time>2011-11-13T13:00:50Z</time></trkpt><trkpt lat="46.4763721637" lon="10.3740958124"><ele>1422.89</ele><time>2011-11-13T13:01:05Z</time></trkpt><trkpt lat="46.4764284063" lon="10.3739285097"><ele>1419.52</ele><time>2011-11-13T13:01:17Z</time></trkpt><trkpt lat="46.4764672145" lon="10.3738700878"><ele>1417.60</ele><time>2011-11-13T13:01:23Z</time></trkpt><trkpt lat="46.4764980599" lon="10.3737870231"><ele>1414.24</ele><time>2011-11-13T13:01:34Z</time></trkpt><trkpt lat="46.4764980599" lon="10.3737870231"><ele>1412.79</ele><time>2011-11-13T13:01:48Z</time></trkpt><trkpt lat="46.4764980599" lon="10.3737870231"><ele>1409.43</ele><time>2011-11-13T13:01:58Z</time></trkpt><trkpt lat="46.4765160810" lon="10.3737598658"><ele>1408.47</ele><time>2011-11-13T13:02:03Z</time></trkpt><trkpt lat="46.4765358623" lon="10.3737368993"><ele>1407.51</ele><time>2011-11-13T13:02:05Z</time></trkpt><trkpt lat="46.4765958767" lon="10.3736601211"><ele>1405.58</ele><time>2011-11-13T13:02:19Z</time></trkpt><trkpt lat="46.4765958767" lon="10.3736601211"><ele>1404.62</ele><time>2011-11-13T13:02:40Z</time></trkpt><trkpt lat="46.4766477607" lon="10.3736457881"><ele>1405.10</ele><time>2011-11-13T13:03:10Z</time></trkpt><trkpt lat="46.4766584896" lon="10.3736449499"><ele>1405.58</ele><time>2011-11-13T13:03:37Z</time></trkpt><trkpt lat="46.4766872395" lon="10.3736073151"><ele>1404.14</ele><time>2011-11-13T13:03:51Z</time></trkpt><trkpt lat="46.4768544585" lon="10.3734779824"><ele>1404.62</ele><time>2011-11-13T13:04:05Z</time></trkpt><trkpt lat="46.4770267066" lon="10.3733677603"><ele>1402.22</ele><time>2011-11-13T13:04:21Z</time></trkpt><trkpt lat="46.4771847054" lon="10.3733512480"><ele>1402.22</ele><time>2011-11-13T13:04:36Z</time></trkpt><trkpt lat="46.4774131123" lon="10.3732665908"><ele>1401.74</ele><time>2011-11-13T13:04:55Z</time></trkpt><trkpt lat="46.4774489030" lon="10.3732531797"><ele>1401.74</ele><time>2011-11-13T13:05:13Z</time></trkpt><trkpt lat="46.4774461370" lon="10.3732478153"><ele>1401.26</ele><time>2011-11-13T13:05:30Z</time></trkpt><trkpt lat="46.4774970990" lon="10.3732386790"><ele>1400.30</ele><time>2011-11-13T13:05:45Z</time></trkpt><trkpt lat="46.4775024634" lon="10.3732775711"><ele>1399.34</ele><time>2011-11-13T13:05:49Z</time></trkpt><trkpt lat="46.4774354920" lon="10.3733052313"><ele>1398.37</ele><time>2011-11-13T13:05:56Z</time></trkpt><trkpt lat="46.4773442969" lon="10.3732475638"><ele>1395.97</ele><time>2011-11-13T13:06:14Z</time></trkpt><trkpt lat="46.4773220848" lon="10.3731647506"><ele>1394.05</ele><time>2011-11-13T13:06:20Z</time></trkpt><trkpt lat="46.4772329852" lon="10.3731126990"><ele>1390.68</ele><time>2011-11-13T13:06:30Z</time></trkpt><trkpt lat="46.4772267826" lon="10.3731167223"><ele>1391.17</ele><time>2011-11-13T13:06:31Z</time></trkpt><trkpt lat="46.4772022236" lon="10.3731325641"><ele>1390.68</ele><time>2011-11-13T13:06:34Z</time></trkpt><trkpt lat="46.4771318156" lon="10.3731085081"><ele>1389.72</ele><time>2011-11-13T13:06:40Z</time></trkpt><trkpt lat="46.4770422131" lon="10.3731282055"><ele>1388.28</ele><time>2011-11-13T13:06:50Z</time></trkpt><trkpt lat="46.4769297279" lon="10.3730428778"><ele>1384.44</ele><time>2011-11-13T13:07:02Z</time></trkpt><trkpt lat="46.4768333361" lon="10.3730185702"><ele>1382.03</ele><time>2011-11-13T13:07:15Z</time></trkpt><trkpt lat="46.4767629281" lon="10.3729213402"><ele>1379.15</ele><time>2011-11-13T13:07:29Z</time></trkpt><trkpt lat="46.4767788537" lon="10.3729260340"><ele>1382.51</ele><time>2011-11-13T13:07:35Z</time></trkpt><trkpt lat="46.4767415542" lon="10.3729092702"><ele>1382.03</ele><time>2011-11-13T13:07:48Z</time></trkpt><trkpt lat="46.4767395426" lon="10.3729054984"><ele>1381.55</ele><time>2011-11-13T13:08:08Z</time></trkpt><trkpt lat="46.4767112117" lon="10.3726801928"><ele>1379.63</ele><time>2011-11-13T13:08:22Z</time></trkpt><trkpt lat="46.4766973816" lon="10.3724929411"><ele>1374.82</ele><time>2011-11-13T13:08:37Z</time></trkpt><trkpt lat="46.4766957052" lon="10.3724810388"><ele>1374.82</ele><time>2011-11-13T13:08:38Z</time></trkpt><trkpt lat="46.4766696375" lon="10.3723295778"><ele>1371.94</ele><time>2011-11-13T13:08:50Z</time></trkpt><trkpt lat="46.4766586572" lon="10.3722144105"><ele>1368.57</ele><time>2011-11-13T13:08:59Z</time></trkpt><trkpt lat="46.4766488504" lon="10.3721317649"><ele>1366.65</ele><time>2011-11-13T13:09:05Z</time></trkpt><trkpt lat="46.4766061865" lon="10.3720470238"><ele>1364.25</ele><time>2011-11-13T13:09:21Z</time></trkpt><trkpt lat="46.4765604213" lon="10.3719867580"><ele>1362.81</ele><time>2011-11-13T13:09:28Z</time></trkpt><trkpt lat="46.4764672983" lon="10.3718272503"><ele>1358.96</ele><time>2011-11-13T13:09:44Z</time></trkpt><trkpt lat="46.4763831440" lon="10.3716456983"><ele>1355.60</ele><time>2011-11-13T13:09:57Z</time></trkpt><trkpt lat="46.4763678890" lon="10.3716016933"><ele>1354.15</ele><time>2011-11-13T13:10:01Z</time></trkpt><trkpt lat="46.4763304219" lon="10.3715685010"><ele>1351.27</ele><time>2011-11-13T13:10:11Z</time></trkpt><trkpt lat="46.4763381332" lon="10.3715824988"><ele>1355.60</ele><time>2011-11-13T13:10:15Z</time></trkpt><trkpt lat="46.4763447549" lon="10.3715913836"><ele>1356.08</ele><time>2011-11-13T13:10:16Z</time></trkpt></trkseg></trk></gpx>